<?xml version="1.0" encoding="UTF-8" standalone="no" ?>
<gpx xmlns="http://www.topografix.com/GPX/1/1" xmlns:xsi="http://www.w3.org/2001/XMLSchema-instance" xsi:schemaLocation="http://www.topografix.com/GPX/1/1 http://www.topografix.com/GPX/1/1/gpx.xsd" version="1.1" creator="VisuGPX - https://www.visugpx.com">
  <metadata>
    <name>Etel_Plouhinec_12-19km</name>
    <desc><![CDATA[gnerando idor: 6224151_6224295_6533546]]></desc>
  </metadata>
  <trk>
    <name><![CDATA[Etel_PlouhinecB3_11.8km-6224151]]></name>
    <extensions>
      <line xmlns="http://www.topografix.com/GPX/gpx_style/0/2">
        <color>0000FF</color>
        <width>4</width>
      </line>
    </extensions>
    <trkseg>
      <trkpt lat="47.68477" lon="-3.21232">
        <ele>4</ele>
        <time>2023-11-01T17:09:39Z</time>
      </trkpt>
      <trkpt lat="47.68454" lon="-3.21378">
        <ele>7</ele>
        <time>2023-11-01T17:11:54Z</time>
      </trkpt>
      <trkpt lat="47.68417" lon="-3.21408">
        <ele>9</ele>
        <time>2023-11-01T17:12:50Z</time>
      </trkpt>
      <trkpt lat="47.68425" lon="-3.21468">
        <ele>10</ele>
        <time>2023-11-01T17:13:45Z</time>
      </trkpt>
      <trkpt lat="47.68423" lon="-3.21519">
        <ele>11</ele>
        <time>2023-11-01T17:14:31Z</time>
      </trkpt>
      <trkpt lat="47.68382" lon="-3.21519">
        <ele>11</ele>
        <time>2023-11-01T17:15:26Z</time>
      </trkpt>
      <trkpt lat="47.68388" lon="-3.22099">
        <ele>11</ele>
        <time>2023-11-01T17:24:07Z</time>
      </trkpt>
      <trkpt lat="47.68446" lon="-3.22382">
        <ele>14</ele>
        <time>2023-11-01T17:28:32Z</time>
      </trkpt>
      <trkpt lat="47.68189" lon="-3.22455">
        <ele>16</ele>
        <time>2023-11-01T17:34:22Z</time>
      </trkpt>
      <trkpt lat="47.68171" lon="-3.22596">
        <ele>18</ele>
        <time>2023-11-01T17:36:31Z</time>
      </trkpt>
      <trkpt lat="47.68047" lon="-3.22704">
        <ele>17</ele>
        <time>2023-11-01T17:39:42Z</time>
      </trkpt>
      <trkpt lat="47.67851" lon="-3.22798">
        <ele>14</ele>
        <time>2023-11-01T17:44:17Z</time>
      </trkpt>
      <trkpt lat="47.67851" lon="-3.22987">
        <ele>13</ele>
        <time>2023-11-01T17:47:07Z</time>
      </trkpt>
      <trkpt lat="47.67562" lon="-3.23163">
        <ele>18</ele>
        <time>2023-11-01T17:54:04Z</time>
      </trkpt>
      <trkpt lat="47.67538" lon="-3.2333">
        <ele>16</ele>
        <time>2023-11-01T17:56:37Z</time>
      </trkpt>
      <trkpt lat="47.67536" lon="-3.23626">
        <ele>13</ele>
        <time>2023-11-01T18:01:03Z</time>
      </trkpt>
      <trkpt lat="47.67429" lon="-3.23897">
        <ele>11</ele>
        <time>2023-11-01T18:05:46Z</time>
      </trkpt>
      <trkpt lat="47.67434" lon="-3.2433">
        <ele>12</ele>
        <time>2023-11-01T18:12:15Z</time>
      </trkpt>
      <trkpt lat="47.67163" lon="-3.24274">
        <ele>9</ele>
        <time>2023-11-01T18:18:20Z</time>
      </trkpt>
      <trkpt lat="47.67267" lon="-3.23631">
        <ele>11</ele>
        <time>2023-11-01T18:28:14Z</time>
      </trkpt>
      <trkpt lat="47.6731" lon="-3.22987">
        <ele>18</ele>
        <time>2023-11-01T18:37:56Z</time>
      </trkpt>
      <trkpt lat="47.67267" lon="-3.22506">
        <ele>17</ele>
        <time>2023-11-01T18:45:12Z</time>
      </trkpt>
      <trkpt lat="47.67154" lon="-3.22493">
        <ele>18</ele>
        <time>2023-11-01T18:47:43Z</time>
      </trkpt>
      <trkpt lat="47.67096" lon="-3.22116">
        <ele>16</ele>
        <time>2023-11-01T18:53:30Z</time>
      </trkpt>
      <trkpt lat="47.66842" lon="-3.22099">
        <ele>18</ele>
        <time>2023-11-01T18:59:10Z</time>
      </trkpt>
      <trkpt lat="47.66793" lon="-3.21674">
        <ele>2</ele>
        <time>2023-11-01T19:05:37Z</time>
      </trkpt>
      <trkpt lat="47.66862" lon="-3.21678">
        <ele>5</ele>
        <time>2023-11-01T19:07:09Z</time>
      </trkpt>
      <trkpt lat="47.6683" lon="-3.21571">
        <ele>3</ele>
        <time>2023-11-01T19:08:54Z</time>
      </trkpt>
      <trkpt lat="47.66859" lon="-3.21524">
        <ele>6</ele>
        <time>2023-11-01T19:09:52Z</time>
      </trkpt>
      <trkpt lat="47.66854" lon="-3.21412">
        <ele>1</ele>
        <time>2023-11-01T19:11:33Z</time>
      </trkpt>
      <trkpt lat="47.669" lon="-3.21382">
        <ele>2</ele>
        <time>2023-11-01T19:12:40Z</time>
      </trkpt>
      <trkpt lat="47.67102" lon="-3.21532">
        <ele>2</ele>
        <time>2023-11-01T19:17:41Z</time>
      </trkpt>
      <trkpt lat="47.6716" lon="-3.21682">
        <ele>5</ele>
        <time>2023-11-01T19:20:16Z</time>
      </trkpt>
      <trkpt lat="47.67284" lon="-3.21597">
        <ele>4</ele>
        <time>2023-11-01T19:23:19Z</time>
      </trkpt>
      <trkpt lat="47.67327" lon="-3.21708">
        <ele>5</ele>
        <time>2023-11-01T19:25:14Z</time>
      </trkpt>
      <trkpt lat="47.67455" lon="-3.21742">
        <ele>7</ele>
        <time>2023-11-01T19:28:07Z</time>
      </trkpt>
      <trkpt lat="47.67432" lon="-3.21506">
        <ele>7</ele>
        <time>2023-11-01T19:31:42Z</time>
      </trkpt>
      <trkpt lat="47.67261" lon="-3.21378">
        <ele>9</ele>
        <time>2023-11-01T19:35:57Z</time>
      </trkpt>
      <trkpt lat="47.67148" lon="-3.20949">
        <ele>4</ele>
        <time>2023-11-01T19:42:51Z</time>
      </trkpt>
      <trkpt lat="47.67221" lon="-3.20863">
        <ele>5</ele>
        <time>2023-11-01T19:44:55Z</time>
      </trkpt>
      <trkpt lat="47.67171" lon="-3.20743">
        <ele>4</ele>
        <time>2023-11-01T19:47:02Z</time>
      </trkpt>
      <trkpt lat="47.6716" lon="-3.20597">
        <ele>3</ele>
        <time>2023-11-01T19:49:14Z</time>
      </trkpt>
      <trkpt lat="47.67235" lon="-3.20524">
        <ele>1</ele>
        <time>2023-11-01T19:51:14Z</time>
      </trkpt>
      <trkpt lat="47.67299" lon="-3.20652">
        <ele>6</ele>
        <time>2023-11-01T19:53:37Z</time>
      </trkpt>
      <trkpt lat="47.67377" lon="-3.20708">
        <ele>4</ele>
        <time>2023-11-01T19:55:33Z</time>
      </trkpt>
      <trkpt lat="47.67432" lon="-3.20828">
        <ele>8</ele>
        <time>2023-11-01T19:57:43Z</time>
      </trkpt>
      <trkpt lat="47.67599" lon="-3.20884">
        <ele>4</ele>
        <time>2023-11-01T20:01:32Z</time>
      </trkpt>
      <trkpt lat="47.67692" lon="-3.20785">
        <ele>4</ele>
        <time>2023-11-01T20:04:04Z</time>
      </trkpt>
      <trkpt lat="47.67663" lon="-3.20601">
        <ele>4</ele>
        <time>2023-11-01T20:06:54Z</time>
      </trkpt>
      <trkpt lat="47.67683" lon="-3.20378">
        <ele>2</ele>
        <time>2023-11-01T20:10:16Z</time>
      </trkpt>
      <trkpt lat="47.67599" lon="-3.20369">
        <ele>1.8</ele>
        <time>2023-11-01T20:12:09Z</time>
      </trkpt>
      <trkpt lat="47.67544" lon="-3.20167">
        <ele>1</ele>
        <time>2023-11-01T20:15:24Z</time>
      </trkpt>
      <trkpt lat="47.67614" lon="-3.20129">
        <ele>4.2</ele>
        <time>2023-11-01T20:17:04Z</time>
      </trkpt>
      <trkpt lat="47.67689" lon="-3.2024">
        <ele>3.4</ele>
        <time>2023-11-01T20:19:25Z</time>
      </trkpt>
      <trkpt lat="47.67761" lon="-3.20292">
        <ele>4</ele>
        <time>2023-11-01T20:21:12Z</time>
      </trkpt>
      <trkpt lat="47.67836" lon="-3.2021">
        <ele>3</ele>
        <time>2023-11-01T20:23:16Z</time>
      </trkpt>
      <trkpt lat="47.67969" lon="-3.20198">
        <ele>3</ele>
        <time>2023-11-01T20:26:14Z</time>
      </trkpt>
      <trkpt lat="47.68105" lon="-3.20013">
        <ele>3.34</ele>
        <time>2023-11-01T20:30:20Z</time>
      </trkpt>
      <trkpt lat="47.68238" lon="-3.20052">
        <ele>3</ele>
        <time>2023-11-01T20:33:21Z</time>
      </trkpt>
      <trkpt lat="47.68301" lon="-3.20022">
        <ele>3</ele>
        <time>2023-11-01T20:34:49Z</time>
      </trkpt>
      <trkpt lat="47.68307" lon="-3.19837">
        <ele>2</ele>
        <time>2023-11-01T20:37:36Z</time>
      </trkpt>
      <trkpt lat="47.68385" lon="-3.19927">
        <ele>2</ele>
        <time>2023-11-01T20:39:48Z</time>
      </trkpt>
      <trkpt lat="47.68365" lon="-3.20022">
        <ele>2</ele>
        <time>2023-11-01T20:41:17Z</time>
      </trkpt>
      <trkpt lat="47.68373" lon="-3.20142">
        <ele>3</ele>
        <time>2023-11-01T20:43:05Z</time>
      </trkpt>
      <trkpt lat="47.68394" lon="-3.20223">
        <ele>3</ele>
        <time>2023-11-01T20:44:23Z</time>
      </trkpt>
      <trkpt lat="47.68373" lon="-3.20296">
        <ele>5</ele>
        <time>2023-11-01T20:45:35Z</time>
      </trkpt>
      <trkpt lat="47.68402" lon="-3.20378">
        <ele>2</ele>
        <time>2023-11-01T20:46:58Z</time>
      </trkpt>
      <trkpt lat="47.68382" lon="-3.20472">
        <ele>4</ele>
        <time>2023-11-01T20:48:26Z</time>
      </trkpt>
      <trkpt lat="47.68451" lon="-3.20541">
        <ele>2</ele>
        <time>2023-11-01T20:50:17Z</time>
      </trkpt>
      <trkpt lat="47.68434" lon="-3.20678">
        <ele>5</ele>
        <time>2023-11-01T20:52:23Z</time>
      </trkpt>
      <trkpt lat="47.68365" lon="-3.20687">
        <ele>5</ele>
        <time>2023-11-01T20:53:55Z</time>
      </trkpt>
      <trkpt lat="47.68327" lon="-3.20644">
        <ele>6</ele>
        <time>2023-11-01T20:54:59Z</time>
      </trkpt>
      <trkpt lat="47.68388" lon="-3.20725">
        <ele>4</ele>
        <time>2023-11-01T20:56:48Z</time>
      </trkpt>
      <trkpt lat="47.68434" lon="-3.20768">
        <ele>2</ele>
        <time>2023-11-01T20:58:00Z</time>
      </trkpt>
      <trkpt lat="47.68434" lon="-3.20914">
        <ele>2</ele>
        <time>2023-11-01T21:00:12Z</time>
      </trkpt>
      <trkpt lat="47.68405" lon="-3.21009">
        <ele>1</ele>
        <time>2023-11-01T21:01:45Z</time>
      </trkpt>
      <trkpt lat="47.68365" lon="-3.20991">
        <ele>2</ele>
        <time>2023-11-01T21:02:41Z</time>
      </trkpt>
      <trkpt lat="47.68376" lon="-3.21094">
        <ele>2</ele>
        <time>2023-11-01T21:04:15Z</time>
      </trkpt>
      <trkpt lat="47.68475" lon="-3.2115">
        <ele>2</ele>
        <time>2023-11-01T21:06:36Z</time>
      </trkpt>
    </trkseg>
  </trk>
  <trk>
    <name><![CDATA[Plouhinec_B1B3_17.3km-6224295]]></name>
    <extensions>
      <line xmlns="http://www.topografix.com/GPX/gpx_style/0/2">
        <color>00FF00</color>
        <width>4</width>
      </line>
    </extensions>
    <trkseg>
      <trkpt lat="47.68477" lon="-3.21232">
        <ele>4</ele>
        <time>2023-11-01T17:09:21Z</time>
      </trkpt>
      <trkpt lat="47.68454" lon="-3.21378">
        <ele>7</ele>
        <time>2023-11-01T17:11:36Z</time>
      </trkpt>
      <trkpt lat="47.68417" lon="-3.21408">
        <ele>9</ele>
        <time>2023-11-01T17:12:32Z</time>
      </trkpt>
      <trkpt lat="47.68425" lon="-3.21468">
        <ele>10</ele>
        <time>2023-11-01T17:13:27Z</time>
      </trkpt>
      <trkpt lat="47.68423" lon="-3.21519">
        <ele>11</ele>
        <time>2023-11-01T17:14:13Z</time>
      </trkpt>
      <trkpt lat="47.68382" lon="-3.21519">
        <ele>11</ele>
        <time>2023-11-01T17:15:08Z</time>
      </trkpt>
      <trkpt lat="47.68388" lon="-3.22099">
        <ele>11</ele>
        <time>2023-11-01T17:23:49Z</time>
      </trkpt>
      <trkpt lat="47.68446" lon="-3.22382">
        <ele>14</ele>
        <time>2023-11-01T17:28:14Z</time>
      </trkpt>
      <trkpt lat="47.68189" lon="-3.22455">
        <ele>16</ele>
        <time>2023-11-01T17:34:04Z</time>
      </trkpt>
      <trkpt lat="47.68171" lon="-3.22596">
        <ele>18</ele>
        <time>2023-11-01T17:36:13Z</time>
      </trkpt>
      <trkpt lat="47.68047" lon="-3.22704">
        <ele>17</ele>
        <time>2023-11-01T17:39:24Z</time>
      </trkpt>
      <trkpt lat="47.67851" lon="-3.22798">
        <ele>14</ele>
        <time>2023-11-01T17:43:59Z</time>
      </trkpt>
      <trkpt lat="47.67851" lon="-3.22987">
        <ele>13</ele>
        <time>2023-11-01T17:46:49Z</time>
      </trkpt>
      <trkpt lat="47.67562" lon="-3.23163">
        <ele>18</ele>
        <time>2023-11-01T17:53:46Z</time>
      </trkpt>
      <trkpt lat="47.67538" lon="-3.2333">
        <ele>16</ele>
        <time>2023-11-01T17:56:19Z</time>
      </trkpt>
      <trkpt lat="47.67536" lon="-3.23626">
        <ele>13</ele>
        <time>2023-11-01T18:00:45Z</time>
      </trkpt>
      <trkpt lat="47.67429" lon="-3.23897">
        <ele>11</ele>
        <time>2023-11-01T18:05:28Z</time>
      </trkpt>
      <trkpt lat="47.67434" lon="-3.2433">
        <ele>12</ele>
        <time>2023-11-01T18:11:57Z</time>
      </trkpt>
      <trkpt lat="47.67177" lon="-3.24305">
        <ele>10</ele>
        <time>2023-11-01T18:17:40Z</time>
      </trkpt>
      <trkpt lat="47.67148" lon="-3.24459">
        <ele>7</ele>
        <time>2023-11-01T18:20:04Z</time>
      </trkpt>
      <trkpt lat="47.6707" lon="-3.24712">
        <ele>7</ele>
        <time>2023-11-01T18:24:14Z</time>
      </trkpt>
      <trkpt lat="47.66914" lon="-3.24875">
        <ele>5</ele>
        <time>2023-11-01T18:28:29Z</time>
      </trkpt>
      <trkpt lat="47.667" lon="-3.24502">
        <ele>10</ele>
        <time>2023-11-01T18:35:49Z</time>
      </trkpt>
      <trkpt lat="47.66689" lon="-3.24412">
        <ele>10</ele>
        <time>2023-11-01T18:37:11Z</time>
      </trkpt>
      <trkpt lat="47.66567" lon="-3.24099">
        <ele>8</ele>
        <time>2023-11-01T18:42:36Z</time>
      </trkpt>
      <trkpt lat="47.66463" lon="-3.24116">
        <ele>9</ele>
        <time>2023-11-01T18:44:56Z</time>
      </trkpt>
      <trkpt lat="47.6646" lon="-3.23987">
        <ele>9</ele>
        <time>2023-11-01T18:46:52Z</time>
      </trkpt>
      <trkpt lat="47.66374" lon="-3.23953">
        <ele>10</ele>
        <time>2023-11-01T18:48:51Z</time>
      </trkpt>
      <trkpt lat="47.66267" lon="-3.23751">
        <ele>9</ele>
        <time>2023-11-01T18:52:42Z</time>
      </trkpt>
      <trkpt lat="47.66284" lon="-3.22596">
        <ele>10</ele>
        <time>2023-11-01T19:10:00Z</time>
      </trkpt>
      <trkpt lat="47.65955" lon="-3.22566">
        <ele>12</ele>
        <time>2023-11-01T19:17:20Z</time>
      </trkpt>
      <trkpt lat="47.65651" lon="-3.22695">
        <ele>5</ele>
        <time>2023-11-01T19:24:22Z</time>
      </trkpt>
      <trkpt lat="47.65657" lon="-3.21991">
        <ele>10</ele>
        <time>2023-11-01T19:34:54Z</time>
      </trkpt>
      <trkpt lat="47.65723" lon="-3.21721">
        <ele>9</ele>
        <time>2023-11-01T19:39:13Z</time>
      </trkpt>
      <trkpt lat="47.65885" lon="-3.21446">
        <ele>5</ele>
        <time>2023-11-01T19:44:41Z</time>
      </trkpt>
      <trkpt lat="47.65932" lon="-3.21416">
        <ele>6</ele>
        <time>2023-11-01T19:45:49Z</time>
      </trkpt>
      <trkpt lat="47.65897" lon="-3.21253">
        <ele>5</ele>
        <time>2023-11-01T19:48:23Z</time>
      </trkpt>
      <trkpt lat="47.65972" lon="-3.2118">
        <ele>4</ele>
        <time>2023-11-01T19:50:23Z</time>
      </trkpt>
      <trkpt lat="47.66189" lon="-3.21202">
        <ele>4</ele>
        <time>2023-11-01T19:55:13Z</time>
      </trkpt>
      <trkpt lat="47.66276" lon="-3.21421">
        <ele>3</ele>
        <time>2023-11-01T19:59:02Z</time>
      </trkpt>
      <trkpt lat="47.66414" lon="-3.21532">
        <ele>3</ele>
        <time>2023-11-01T20:02:31Z</time>
      </trkpt>
      <trkpt lat="47.66487" lon="-3.21455">
        <ele>1</ele>
        <time>2023-11-01T20:04:30Z</time>
      </trkpt>
      <trkpt lat="47.66452" lon="-3.21584">
        <ele>3</ele>
        <time>2023-11-01T20:06:35Z</time>
      </trkpt>
      <trkpt lat="47.66498" lon="-3.21721">
        <ele>1</ele>
        <time>2023-11-01T20:08:53Z</time>
      </trkpt>
      <trkpt lat="47.66515" lon="-3.21854">
        <ele>5</ele>
        <time>2023-11-01T20:10:55Z</time>
      </trkpt>
      <trkpt lat="47.6664" lon="-3.21897">
        <ele>6</ele>
        <time>2023-11-01T20:13:46Z</time>
      </trkpt>
      <trkpt lat="47.66663" lon="-3.21815">
        <ele>3</ele>
        <time>2023-11-01T20:15:06Z</time>
      </trkpt>
      <trkpt lat="47.66793" lon="-3.21674">
        <ele>2</ele>
        <time>2023-11-01T20:18:41Z</time>
      </trkpt>
      <trkpt lat="47.66862" lon="-3.21678">
        <ele>5</ele>
        <time>2023-11-01T20:20:13Z</time>
      </trkpt>
      <trkpt lat="47.6683" lon="-3.21571">
        <ele>3</ele>
        <time>2023-11-01T20:21:58Z</time>
      </trkpt>
      <trkpt lat="47.66859" lon="-3.21524">
        <ele>6</ele>
        <time>2023-11-01T20:22:55Z</time>
      </trkpt>
      <trkpt lat="47.66854" lon="-3.21412">
        <ele>1</ele>
        <time>2023-11-01T20:24:36Z</time>
      </trkpt>
      <trkpt lat="47.669" lon="-3.21382">
        <ele>2</ele>
        <time>2023-11-01T20:25:43Z</time>
      </trkpt>
      <trkpt lat="47.67102" lon="-3.21532">
        <ele>2</ele>
        <time>2023-11-01T20:30:45Z</time>
      </trkpt>
      <trkpt lat="47.6716" lon="-3.21682">
        <ele>5</ele>
        <time>2023-11-01T20:33:20Z</time>
      </trkpt>
      <trkpt lat="47.67284" lon="-3.21597">
        <ele>4</ele>
        <time>2023-11-01T20:36:22Z</time>
      </trkpt>
      <trkpt lat="47.67327" lon="-3.21708">
        <ele>5</ele>
        <time>2023-11-01T20:38:17Z</time>
      </trkpt>
      <trkpt lat="47.67455" lon="-3.21742">
        <ele>7</ele>
        <time>2023-11-01T20:41:11Z</time>
      </trkpt>
      <trkpt lat="47.67432" lon="-3.21506">
        <ele>7</ele>
        <time>2023-11-01T20:44:45Z</time>
      </trkpt>
      <trkpt lat="47.67261" lon="-3.21378">
        <ele>9</ele>
        <time>2023-11-01T20:49:01Z</time>
      </trkpt>
      <trkpt lat="47.67148" lon="-3.20949">
        <ele>4</ele>
        <time>2023-11-01T20:55:55Z</time>
      </trkpt>
      <trkpt lat="47.67221" lon="-3.20863">
        <ele>5</ele>
        <time>2023-11-01T20:57:59Z</time>
      </trkpt>
      <trkpt lat="47.67171" lon="-3.20743">
        <ele>4</ele>
        <time>2023-11-01T21:00:06Z</time>
      </trkpt>
      <trkpt lat="47.6716" lon="-3.20597">
        <ele>3</ele>
        <time>2023-11-01T21:02:18Z</time>
      </trkpt>
      <trkpt lat="47.67235" lon="-3.20524">
        <ele>1</ele>
        <time>2023-11-01T21:04:17Z</time>
      </trkpt>
      <trkpt lat="47.67299" lon="-3.20652">
        <ele>6</ele>
        <time>2023-11-01T21:06:41Z</time>
      </trkpt>
      <trkpt lat="47.67377" lon="-3.20708">
        <ele>4</ele>
        <time>2023-11-01T21:08:36Z</time>
      </trkpt>
      <trkpt lat="47.67432" lon="-3.20828">
        <ele>8</ele>
        <time>2023-11-01T21:10:47Z</time>
      </trkpt>
      <trkpt lat="47.67599" lon="-3.20884">
        <ele>4</ele>
        <time>2023-11-01T21:14:35Z</time>
      </trkpt>
      <trkpt lat="47.67692" lon="-3.20785">
        <ele>4</ele>
        <time>2023-11-01T21:17:08Z</time>
      </trkpt>
      <trkpt lat="47.67663" lon="-3.20601">
        <ele>4</ele>
        <time>2023-11-01T21:19:58Z</time>
      </trkpt>
      <trkpt lat="47.67683" lon="-3.20378">
        <ele>2</ele>
        <time>2023-11-01T21:23:20Z</time>
      </trkpt>
      <trkpt lat="47.67599" lon="-3.20369">
        <ele>1.8</ele>
        <time>2023-11-01T21:25:12Z</time>
      </trkpt>
      <trkpt lat="47.67544" lon="-3.20167">
        <ele>1</ele>
        <time>2023-11-01T21:28:28Z</time>
      </trkpt>
      <trkpt lat="47.67614" lon="-3.20129">
        <ele>4.2</ele>
        <time>2023-11-01T21:30:07Z</time>
      </trkpt>
      <trkpt lat="47.67689" lon="-3.2024">
        <ele>3.4</ele>
        <time>2023-11-01T21:32:29Z</time>
      </trkpt>
      <trkpt lat="47.67761" lon="-3.20292">
        <ele>4</ele>
        <time>2023-11-01T21:34:16Z</time>
      </trkpt>
      <trkpt lat="47.67836" lon="-3.2021">
        <ele>3</ele>
        <time>2023-11-01T21:36:20Z</time>
      </trkpt>
      <trkpt lat="47.67969" lon="-3.20198">
        <ele>3</ele>
        <time>2023-11-01T21:39:18Z</time>
      </trkpt>
      <trkpt lat="47.68105" lon="-3.20013">
        <ele>3.34</ele>
        <time>2023-11-01T21:43:24Z</time>
      </trkpt>
      <trkpt lat="47.68238" lon="-3.20052">
        <ele>3</ele>
        <time>2023-11-01T21:46:25Z</time>
      </trkpt>
      <trkpt lat="47.68301" lon="-3.20022">
        <ele>3</ele>
        <time>2023-11-01T21:47:53Z</time>
      </trkpt>
      <trkpt lat="47.68307" lon="-3.19837">
        <ele>2</ele>
        <time>2023-11-01T21:50:39Z</time>
      </trkpt>
      <trkpt lat="47.68385" lon="-3.19927">
        <ele>2</ele>
        <time>2023-11-01T21:52:51Z</time>
      </trkpt>
      <trkpt lat="47.68365" lon="-3.20022">
        <ele>2</ele>
        <time>2023-11-01T21:54:21Z</time>
      </trkpt>
      <trkpt lat="47.68373" lon="-3.20142">
        <ele>3</ele>
        <time>2023-11-01T21:56:09Z</time>
      </trkpt>
      <trkpt lat="47.68394" lon="-3.20223">
        <ele>3</ele>
        <time>2023-11-01T21:57:27Z</time>
      </trkpt>
      <trkpt lat="47.68373" lon="-3.20296">
        <ele>5</ele>
        <time>2023-11-01T21:58:38Z</time>
      </trkpt>
      <trkpt lat="47.68402" lon="-3.20378">
        <ele>2</ele>
        <time>2023-11-01T22:00:01Z</time>
      </trkpt>
      <trkpt lat="47.68382" lon="-3.20472">
        <ele>4</ele>
        <time>2023-11-01T22:01:30Z</time>
      </trkpt>
      <trkpt lat="47.68451" lon="-3.20541">
        <ele>2</ele>
        <time>2023-11-01T22:03:21Z</time>
      </trkpt>
      <trkpt lat="47.68434" lon="-3.20678">
        <ele>5</ele>
        <time>2023-11-01T22:05:26Z</time>
      </trkpt>
      <trkpt lat="47.68365" lon="-3.20687">
        <ele>5</ele>
        <time>2023-11-01T22:06:59Z</time>
      </trkpt>
      <trkpt lat="47.68327" lon="-3.20644">
        <ele>6</ele>
        <time>2023-11-01T22:08:02Z</time>
      </trkpt>
      <trkpt lat="47.68388" lon="-3.20725">
        <ele>4</ele>
        <time>2023-11-01T22:09:51Z</time>
      </trkpt>
      <trkpt lat="47.68434" lon="-3.20768">
        <ele>2</ele>
        <time>2023-11-01T22:11:04Z</time>
      </trkpt>
      <trkpt lat="47.68434" lon="-3.20914">
        <ele>2</ele>
        <time>2023-11-01T22:13:15Z</time>
      </trkpt>
      <trkpt lat="47.68405" lon="-3.21009">
        <ele>1</ele>
        <time>2023-11-01T22:14:49Z</time>
      </trkpt>
      <trkpt lat="47.68365" lon="-3.20991">
        <ele>2</ele>
        <time>2023-11-01T22:15:45Z</time>
      </trkpt>
      <trkpt lat="47.68405" lon="-3.21112">
        <ele>2</ele>
        <time>2023-11-01T22:17:46Z</time>
      </trkpt>
      <trkpt lat="47.68475" lon="-3.2115">
        <ele>2</ele>
        <time>2023-11-01T22:19:25Z</time>
      </trkpt>
      <trkpt lat="47.68475" lon="-3.21155">
        <ele>2</ele>
        <time>2023-11-01T22:19:30Z</time>
      </trkpt>
      <trkpt lat="47.66929" lon="-3.213">
        <time>2023-11-01T22:53:57Z</time>
      </trkpt>
    </trkseg>
  </trk>
  <trk>
    <name><![CDATA[Plouhinec_RiveDroitePlouhinec_19.2km-6533546]]></name>
    <extensions>
      <line xmlns="http://www.topografix.com/GPX/gpx_style/0/2">
        <color>FF0000</color>
        <width>4</width>
      </line>
    </extensions>
    <trkseg>
      <trkpt lat="47.68434" lon="-3.21217">
        <ele>4</ele>
        <time>2023-11-01T17:09:57Z</time>
      </trkpt>
      <trkpt lat="47.68397" lon="-3.2121">
        <ele>5</ele>
        <time>2023-11-01T17:10:47Z</time>
      </trkpt>
      <trkpt lat="47.68382" lon="-3.21226">
        <ele>5</ele>
        <time>2023-11-01T17:11:11Z</time>
      </trkpt>
      <trkpt lat="47.68365" lon="-3.21304">
        <ele>6</ele>
        <time>2023-11-01T17:12:25Z</time>
      </trkpt>
      <trkpt lat="47.68377" lon="-3.21326">
        <ele>6</ele>
        <time>2023-11-01T17:12:51Z</time>
      </trkpt>
      <trkpt lat="47.68393" lon="-3.21342">
        <ele>7</ele>
        <time>2023-11-01T17:13:16Z</time>
      </trkpt>
      <trkpt lat="47.68406" lon="-3.21363">
        <ele>7</ele>
        <time>2023-11-01T17:13:42Z</time>
      </trkpt>
      <trkpt lat="47.68421" lon="-3.21377">
        <ele>8</ele>
        <time>2023-11-01T17:14:06Z</time>
      </trkpt>
      <trkpt lat="47.68417" lon="-3.21404">
        <ele>9</ele>
        <time>2023-11-01T17:14:30Z</time>
      </trkpt>
      <trkpt lat="47.68417" lon="-3.21431">
        <ele>9</ele>
        <time>2023-11-01T17:14:55Z</time>
      </trkpt>
      <trkpt lat="47.68412" lon="-3.21457">
        <ele>10</ele>
        <time>2023-11-01T17:15:19Z</time>
      </trkpt>
      <trkpt lat="47.68426" lon="-3.21509">
        <ele>11</ele>
        <time>2023-11-01T17:16:09Z</time>
      </trkpt>
      <trkpt lat="47.68407" lon="-3.21511">
        <ele>11</ele>
        <time>2023-11-01T17:16:35Z</time>
      </trkpt>
      <trkpt lat="47.68389" lon="-3.21517">
        <ele>11</ele>
        <time>2023-11-01T17:16:59Z</time>
      </trkpt>
      <trkpt lat="47.68387" lon="-3.21544">
        <ele>11</ele>
        <time>2023-11-01T17:17:24Z</time>
      </trkpt>
      <trkpt lat="47.68391" lon="-3.2157">
        <ele>11</ele>
        <time>2023-11-01T17:17:48Z</time>
      </trkpt>
      <trkpt lat="47.68385" lon="-3.21598">
        <ele>11</ele>
        <time>2023-11-01T17:18:14Z</time>
      </trkpt>
      <trkpt lat="47.68389" lon="-3.21624">
        <ele>11</ele>
        <time>2023-11-01T17:18:38Z</time>
      </trkpt>
      <trkpt lat="47.68387" lon="-3.2179">
        <ele>13</ele>
        <time>2023-11-01T17:21:07Z</time>
      </trkpt>
      <trkpt lat="47.6839" lon="-3.21843">
        <ele>12</ele>
        <time>2023-11-01T17:21:55Z</time>
      </trkpt>
      <trkpt lat="47.68387" lon="-3.2187">
        <ele>12</ele>
        <time>2023-11-01T17:22:19Z</time>
      </trkpt>
      <trkpt lat="47.68387" lon="-3.21926">
        <ele>11</ele>
        <time>2023-11-01T17:23:10Z</time>
      </trkpt>
      <trkpt lat="47.6839" lon="-3.21953">
        <ele>11</ele>
        <time>2023-11-01T17:23:34Z</time>
      </trkpt>
      <trkpt lat="47.68389" lon="-3.22091">
        <ele>11</ele>
        <time>2023-11-01T17:25:38Z</time>
      </trkpt>
      <trkpt lat="47.68391" lon="-3.22118">
        <ele>12</ele>
        <time>2023-11-01T17:26:03Z</time>
      </trkpt>
      <trkpt lat="47.68404" lon="-3.22169">
        <ele>13</ele>
        <time>2023-11-01T17:26:52Z</time>
      </trkpt>
      <trkpt lat="47.68408" lon="-3.22196">
        <ele>14</ele>
        <time>2023-11-01T17:27:17Z</time>
      </trkpt>
      <trkpt lat="47.68424" lon="-3.22246">
        <ele>15</ele>
        <time>2023-11-01T17:28:06Z</time>
      </trkpt>
      <trkpt lat="47.68427" lon="-3.22274">
        <ele>15</ele>
        <time>2023-11-01T17:28:32Z</time>
      </trkpt>
      <trkpt lat="47.68441" lon="-3.22326">
        <ele>14</ele>
        <time>2023-11-01T17:29:22Z</time>
      </trkpt>
      <trkpt lat="47.68449" lon="-3.22379">
        <ele>14</ele>
        <time>2023-11-01T17:30:11Z</time>
      </trkpt>
      <trkpt lat="47.68434" lon="-3.22395">
        <ele>14</ele>
        <time>2023-11-01T17:30:36Z</time>
      </trkpt>
      <trkpt lat="47.68398" lon="-3.2241">
        <ele>14</ele>
        <time>2023-11-01T17:31:25Z</time>
      </trkpt>
      <trkpt lat="47.68362" lon="-3.22414">
        <ele>14</ele>
        <time>2023-11-01T17:32:14Z</time>
      </trkpt>
      <trkpt lat="47.68326" lon="-3.22427">
        <ele>14</ele>
        <time>2023-11-01T17:33:03Z</time>
      </trkpt>
      <trkpt lat="47.68288" lon="-3.22432">
        <ele>15</ele>
        <time>2023-11-01T17:33:54Z</time>
      </trkpt>
      <trkpt lat="47.6827" lon="-3.22437">
        <ele>15</ele>
        <time>2023-11-01T17:34:18Z</time>
      </trkpt>
      <trkpt lat="47.68215" lon="-3.22456">
        <ele>16</ele>
        <time>2023-11-01T17:35:34Z</time>
      </trkpt>
      <trkpt lat="47.68145" lon="-3.22486">
        <ele>15</ele>
        <time>2023-11-01T17:37:11Z</time>
      </trkpt>
      <trkpt lat="47.68126" lon="-3.22488">
        <ele>15</ele>
        <time>2023-11-01T17:37:36Z</time>
      </trkpt>
      <trkpt lat="47.68072" lon="-3.22507">
        <ele>15</ele>
        <time>2023-11-01T17:38:50Z</time>
      </trkpt>
      <trkpt lat="47.68018" lon="-3.22531">
        <ele>14</ele>
        <time>2023-11-01T17:40:06Z</time>
      </trkpt>
      <trkpt lat="47.67968" lon="-3.22567">
        <ele>15</ele>
        <time>2023-11-01T17:41:20Z</time>
      </trkpt>
      <trkpt lat="47.67952" lon="-3.22582">
        <ele>16</ele>
        <time>2023-11-01T17:41:45Z</time>
      </trkpt>
      <trkpt lat="47.67963" lon="-3.22604">
        <ele>16</ele>
        <time>2023-11-01T17:42:10Z</time>
      </trkpt>
      <trkpt lat="47.67992" lon="-3.22639">
        <ele>17</ele>
        <time>2023-11-01T17:43:00Z</time>
      </trkpt>
      <trkpt lat="47.68009" lon="-3.22655">
        <ele>17</ele>
        <time>2023-11-01T17:43:26Z</time>
      </trkpt>
      <trkpt lat="47.68035" lon="-3.22695">
        <ele>17</ele>
        <time>2023-11-01T17:44:16Z</time>
      </trkpt>
      <trkpt lat="47.68065" lon="-3.22732">
        <ele>17</ele>
        <time>2023-11-01T17:45:08Z</time>
      </trkpt>
      <trkpt lat="47.68066" lon="-3.2276">
        <ele>15</ele>
        <time>2023-11-01T17:45:34Z</time>
      </trkpt>
      <trkpt lat="47.68034" lon="-3.22788">
        <ele>15</ele>
        <time>2023-11-01T17:46:23Z</time>
      </trkpt>
      <trkpt lat="47.68005" lon="-3.22822">
        <ele>14</ele>
        <time>2023-11-01T17:47:12Z</time>
      </trkpt>
      <trkpt lat="47.67986" lon="-3.22826">
        <ele>14</ele>
        <time>2023-11-01T17:47:38Z</time>
      </trkpt>
      <trkpt lat="47.67968" lon="-3.22826">
        <ele>14</ele>
        <time>2023-11-01T17:48:02Z</time>
      </trkpt>
      <trkpt lat="47.67917" lon="-3.22859">
        <ele>13</ele>
        <time>2023-11-01T17:49:16Z</time>
      </trkpt>
      <trkpt lat="47.67901" lon="-3.22872">
        <ele>13</ele>
        <time>2023-11-01T17:49:41Z</time>
      </trkpt>
      <trkpt lat="47.67866" lon="-3.22888">
        <ele>13</ele>
        <time>2023-11-01T17:50:30Z</time>
      </trkpt>
      <trkpt lat="47.67858" lon="-3.22913">
        <ele>13</ele>
        <time>2023-11-01T17:50:54Z</time>
      </trkpt>
      <trkpt lat="47.67856" lon="-3.22968">
        <ele>13</ele>
        <time>2023-11-01T17:51:44Z</time>
      </trkpt>
      <trkpt lat="47.67851" lon="-3.22995">
        <ele>13</ele>
        <time>2023-11-01T17:52:09Z</time>
      </trkpt>
      <trkpt lat="47.67694" lon="-3.23083">
        <ele>15</ele>
        <time>2023-11-01T17:55:53Z</time>
      </trkpt>
      <trkpt lat="47.67644" lon="-3.23115">
        <ele>15</ele>
        <time>2023-11-01T17:57:06Z</time>
      </trkpt>
      <trkpt lat="47.67574" lon="-3.23153">
        <ele>17</ele>
        <time>2023-11-01T17:58:45Z</time>
      </trkpt>
      <trkpt lat="47.67563" lon="-3.23177">
        <ele>18</ele>
        <time>2023-11-01T17:59:11Z</time>
      </trkpt>
      <trkpt lat="47.67541" lon="-3.23281">
        <ele>17</ele>
        <time>2023-11-01T18:00:49Z</time>
      </trkpt>
      <trkpt lat="47.67538" lon="-3.23308">
        <ele>17</ele>
        <time>2023-11-01T18:01:14Z</time>
      </trkpt>
      <trkpt lat="47.67537" lon="-3.23336">
        <ele>16</ele>
        <time>2023-11-01T18:01:39Z</time>
      </trkpt>
      <trkpt lat="47.67547" lon="-3.23446">
        <ele>15</ele>
        <time>2023-11-01T18:03:19Z</time>
      </trkpt>
      <trkpt lat="47.67547" lon="-3.23501">
        <ele>15</ele>
        <time>2023-11-01T18:04:08Z</time>
      </trkpt>
      <trkpt lat="47.67539" lon="-3.23611">
        <ele>14</ele>
        <time>2023-11-01T18:05:48Z</time>
      </trkpt>
      <trkpt lat="47.67533" lon="-3.23636">
        <ele>13</ele>
        <time>2023-11-01T18:06:11Z</time>
      </trkpt>
      <trkpt lat="47.67516" lon="-3.23685">
        <ele>12</ele>
        <time>2023-11-01T18:07:01Z</time>
      </trkpt>
      <trkpt lat="47.67479" lon="-3.23779">
        <ele>12</ele>
        <time>2023-11-01T18:08:39Z</time>
      </trkpt>
      <trkpt lat="47.67439" lon="-3.23871">
        <ele>12</ele>
        <time>2023-11-01T18:10:17Z</time>
      </trkpt>
      <trkpt lat="47.67432" lon="-3.23895">
        <ele>11</ele>
        <time>2023-11-01T18:10:41Z</time>
      </trkpt>
      <trkpt lat="47.67428" lon="-3.23923">
        <ele>11</ele>
        <time>2023-11-01T18:11:06Z</time>
      </trkpt>
      <trkpt lat="47.67429" lon="-3.24036">
        <ele>11</ele>
        <time>2023-11-01T18:12:48Z</time>
      </trkpt>
      <trkpt lat="47.67416" lon="-3.24055">
        <ele>11</ele>
        <time>2023-11-01T18:13:12Z</time>
      </trkpt>
      <trkpt lat="47.67408" lon="-3.2408">
        <ele>11</ele>
        <time>2023-11-01T18:13:37Z</time>
      </trkpt>
      <trkpt lat="47.67416" lon="-3.24105">
        <ele>12</ele>
        <time>2023-11-01T18:14:02Z</time>
      </trkpt>
      <trkpt lat="47.67415" lon="-3.24077">
        <ele>11</ele>
        <time>2023-11-01T18:14:27Z</time>
      </trkpt>
      <trkpt lat="47.67417" lon="-3.24104">
        <ele>12</ele>
        <time>2023-11-01T18:14:52Z</time>
      </trkpt>
      <trkpt lat="47.6742" lon="-3.24077">
        <ele>11</ele>
        <time>2023-11-01T18:15:16Z</time>
      </trkpt>
      <trkpt lat="47.67403" lon="-3.2409">
        <ele>11</ele>
        <time>2023-11-01T18:15:42Z</time>
      </trkpt>
      <trkpt lat="47.67367" lon="-3.24099">
        <ele>11</ele>
        <time>2023-11-01T18:16:30Z</time>
      </trkpt>
      <trkpt lat="47.6735" lon="-3.2411">
        <ele>11</ele>
        <time>2023-11-01T18:16:55Z</time>
      </trkpt>
      <trkpt lat="47.67336" lon="-3.24126">
        <ele>11</ele>
        <time>2023-11-01T18:17:19Z</time>
      </trkpt>
      <trkpt lat="47.67328" lon="-3.24152">
        <ele>10</ele>
        <time>2023-11-01T18:17:44Z</time>
      </trkpt>
      <trkpt lat="47.67307" lon="-3.24198">
        <ele>10</ele>
        <time>2023-11-01T18:18:34Z</time>
      </trkpt>
      <trkpt lat="47.67292" lon="-3.24214">
        <ele>10</ele>
        <time>2023-11-01T18:18:59Z</time>
      </trkpt>
      <trkpt lat="47.67284" lon="-3.24239">
        <ele>10</ele>
        <time>2023-11-01T18:19:24Z</time>
      </trkpt>
      <trkpt lat="47.67279" lon="-3.24266">
        <ele>10</ele>
        <time>2023-11-01T18:19:49Z</time>
      </trkpt>
      <trkpt lat="47.67269" lon="-3.24288">
        <ele>10</ele>
        <time>2023-11-01T18:20:13Z</time>
      </trkpt>
      <trkpt lat="47.67252" lon="-3.24298">
        <ele>10</ele>
        <time>2023-11-01T18:20:37Z</time>
      </trkpt>
      <trkpt lat="47.67234" lon="-3.24304">
        <ele>10</ele>
        <time>2023-11-01T18:21:02Z</time>
      </trkpt>
      <trkpt lat="47.67216" lon="-3.24304">
        <ele>10</ele>
        <time>2023-11-01T18:21:26Z</time>
      </trkpt>
      <trkpt lat="47.67179" lon="-3.24295">
        <ele>10</ele>
        <time>2023-11-01T18:22:16Z</time>
      </trkpt>
      <trkpt lat="47.67163" lon="-3.24306">
        <ele>10</ele>
        <time>2023-11-01T18:22:39Z</time>
      </trkpt>
      <trkpt lat="47.67156" lon="-3.24332">
        <ele>11</ele>
        <time>2023-11-01T18:23:05Z</time>
      </trkpt>
      <trkpt lat="47.67163" lon="-3.24385">
        <ele>9</ele>
        <time>2023-11-01T18:23:53Z</time>
      </trkpt>
      <trkpt lat="47.67165" lon="-3.24439">
        <ele>8</ele>
        <time>2023-11-01T18:24:42Z</time>
      </trkpt>
      <trkpt lat="47.67141" lon="-3.24512">
        <ele>7</ele>
        <time>2023-11-01T18:25:55Z</time>
      </trkpt>
      <trkpt lat="47.67119" lon="-3.24557">
        <ele>7</ele>
        <time>2023-11-01T18:26:45Z</time>
      </trkpt>
      <trkpt lat="47.6708" lon="-3.2468">
        <ele>7</ele>
        <time>2023-11-01T18:28:47Z</time>
      </trkpt>
      <trkpt lat="47.6707" lon="-3.24703">
        <ele>7</ele>
        <time>2023-11-01T18:29:12Z</time>
      </trkpt>
      <trkpt lat="47.67056" lon="-3.24722">
        <ele>7</ele>
        <time>2023-11-01T18:29:37Z</time>
      </trkpt>
      <trkpt lat="47.67013" lon="-3.24776">
        <ele>6</ele>
        <time>2023-11-01T18:30:52Z</time>
      </trkpt>
      <trkpt lat="47.66982" lon="-3.24807">
        <ele>6</ele>
        <time>2023-11-01T18:31:42Z</time>
      </trkpt>
      <trkpt lat="47.66913" lon="-3.24844">
        <ele>5</ele>
        <time>2023-11-01T18:33:20Z</time>
      </trkpt>
      <trkpt lat="47.66895" lon="-3.24846">
        <ele>5</ele>
        <time>2023-11-01T18:33:44Z</time>
      </trkpt>
      <trkpt lat="47.66878" lon="-3.24834">
        <ele>5</ele>
        <time>2023-11-01T18:34:09Z</time>
      </trkpt>
      <trkpt lat="47.66859" lon="-3.24833">
        <ele>6</ele>
        <time>2023-11-01T18:34:34Z</time>
      </trkpt>
      <trkpt lat="47.66826" lon="-3.24857">
        <ele>6</ele>
        <time>2023-11-01T18:35:23Z</time>
      </trkpt>
      <trkpt lat="47.66813" lon="-3.24877">
        <ele>6</ele>
        <time>2023-11-01T18:35:48Z</time>
      </trkpt>
      <trkpt lat="47.66752" lon="-3.24938">
        <ele>5</ele>
        <time>2023-11-01T18:37:26Z</time>
      </trkpt>
      <trkpt lat="47.66725" lon="-3.24974">
        <ele>5</ele>
        <time>2023-11-01T18:38:15Z</time>
      </trkpt>
      <trkpt lat="47.66694" lon="-3.25003">
        <ele>5</ele>
        <time>2023-11-01T18:39:04Z</time>
      </trkpt>
      <trkpt lat="47.66676" lon="-3.25051">
        <ele>5</ele>
        <time>2023-11-01T18:39:53Z</time>
      </trkpt>
      <trkpt lat="47.66664" lon="-3.25072">
        <ele>5</ele>
        <time>2023-11-01T18:40:18Z</time>
      </trkpt>
      <trkpt lat="47.6665" lon="-3.25091">
        <ele>4</ele>
        <time>2023-11-01T18:40:43Z</time>
      </trkpt>
      <trkpt lat="47.66634" lon="-3.25104">
        <ele>3</ele>
        <time>2023-11-01T18:41:08Z</time>
      </trkpt>
      <trkpt lat="47.66663" lon="-3.25068">
        <ele>5</ele>
        <time>2023-11-01T18:41:58Z</time>
      </trkpt>
      <trkpt lat="47.66685" lon="-3.25024">
        <ele>5</ele>
        <time>2023-11-01T18:42:47Z</time>
      </trkpt>
      <trkpt lat="47.66685" lon="-3.24997">
        <ele>5</ele>
        <time>2023-11-01T18:43:12Z</time>
      </trkpt>
      <trkpt lat="47.66676" lon="-3.24917">
        <ele>5</ele>
        <time>2023-11-01T18:44:24Z</time>
      </trkpt>
      <trkpt lat="47.66674" lon="-3.24862">
        <ele>7</ele>
        <time>2023-11-01T18:45:14Z</time>
      </trkpt>
      <trkpt lat="47.66658" lon="-3.2485">
        <ele>7</ele>
        <time>2023-11-01T18:45:38Z</time>
      </trkpt>
      <trkpt lat="47.66639" lon="-3.24849">
        <ele>7</ele>
        <time>2023-11-01T18:46:03Z</time>
      </trkpt>
      <trkpt lat="47.66621" lon="-3.24842">
        <ele>7</ele>
        <time>2023-11-01T18:46:28Z</time>
      </trkpt>
      <trkpt lat="47.66598" lon="-3.248">
        <ele>8</ele>
        <time>2023-11-01T18:47:17Z</time>
      </trkpt>
      <trkpt lat="47.66561" lon="-3.24706">
        <ele>8</ele>
        <time>2023-11-01T18:48:55Z</time>
      </trkpt>
      <trkpt lat="47.66548" lon="-3.24686">
        <ele>8</ele>
        <time>2023-11-01T18:49:20Z</time>
      </trkpt>
      <trkpt lat="47.66533" lon="-3.24669">
        <ele>7</ele>
        <time>2023-11-01T18:49:45Z</time>
      </trkpt>
      <trkpt lat="47.66502" lon="-3.24641">
        <ele>7</ele>
        <time>2023-11-01T18:50:33Z</time>
      </trkpt>
      <trkpt lat="47.66494" lon="-3.24588">
        <ele>8</ele>
        <time>2023-11-01T18:51:22Z</time>
      </trkpt>
      <trkpt lat="47.66486" lon="-3.24563">
        <ele>8</ele>
        <time>2023-11-01T18:51:47Z</time>
      </trkpt>
      <trkpt lat="47.66474" lon="-3.24543">
        <ele>8</ele>
        <time>2023-11-01T18:52:11Z</time>
      </trkpt>
      <trkpt lat="47.66468" lon="-3.24517">
        <ele>8</ele>
        <time>2023-11-01T18:52:36Z</time>
      </trkpt>
      <trkpt lat="47.66475" lon="-3.24463">
        <ele>9</ele>
        <time>2023-11-01T18:53:25Z</time>
      </trkpt>
      <trkpt lat="47.6649" lon="-3.24447">
        <ele>11</ele>
        <time>2023-11-01T18:53:50Z</time>
      </trkpt>
      <trkpt lat="47.665" lon="-3.24425">
        <ele>12</ele>
        <time>2023-11-01T18:54:13Z</time>
      </trkpt>
      <trkpt lat="47.66497" lon="-3.24369">
        <ele>11</ele>
        <time>2023-11-01T18:55:04Z</time>
      </trkpt>
      <trkpt lat="47.66505" lon="-3.24343">
        <ele>11</ele>
        <time>2023-11-01T18:55:30Z</time>
      </trkpt>
      <trkpt lat="47.66527" lon="-3.24299">
        <ele>11</ele>
        <time>2023-11-01T18:56:19Z</time>
      </trkpt>
      <trkpt lat="47.66521" lon="-3.24274">
        <ele>10</ele>
        <time>2023-11-01T18:56:43Z</time>
      </trkpt>
      <trkpt lat="47.66493" lon="-3.24239">
        <ele>10</ele>
        <time>2023-11-01T18:57:32Z</time>
      </trkpt>
      <trkpt lat="47.66481" lon="-3.24217">
        <ele>9</ele>
        <time>2023-11-01T18:57:57Z</time>
      </trkpt>
      <trkpt lat="47.66472" lon="-3.24193">
        <ele>9</ele>
        <time>2023-11-01T18:58:22Z</time>
      </trkpt>
      <trkpt lat="47.66467" lon="-3.24167">
        <ele>9</ele>
        <time>2023-11-01T18:58:46Z</time>
      </trkpt>
      <trkpt lat="47.66475" lon="-3.24115">
        <ele>9</ele>
        <time>2023-11-01T18:59:34Z</time>
      </trkpt>
      <trkpt lat="47.66474" lon="-3.24059">
        <ele>9</ele>
        <time>2023-11-01T19:00:24Z</time>
      </trkpt>
      <trkpt lat="47.66467" lon="-3.23977">
        <ele>9</ele>
        <time>2023-11-01T19:01:39Z</time>
      </trkpt>
      <trkpt lat="47.66411" lon="-3.23974">
        <ele>9</ele>
        <time>2023-11-01T19:02:53Z</time>
      </trkpt>
      <trkpt lat="47.66394" lon="-3.23963">
        <ele>9</ele>
        <time>2023-11-01T19:03:18Z</time>
      </trkpt>
      <trkpt lat="47.66372" lon="-3.2392">
        <ele>10</ele>
        <time>2023-11-01T19:04:07Z</time>
      </trkpt>
      <trkpt lat="47.66318" lon="-3.23844">
        <ele>11</ele>
        <time>2023-11-01T19:05:46Z</time>
      </trkpt>
      <trkpt lat="47.66294" lon="-3.23802">
        <ele>10</ele>
        <time>2023-11-01T19:06:35Z</time>
      </trkpt>
      <trkpt lat="47.66284" lon="-3.23779">
        <ele>9</ele>
        <time>2023-11-01T19:07:00Z</time>
      </trkpt>
      <trkpt lat="47.66259" lon="-3.23739">
        <ele>9</ele>
        <time>2023-11-01T19:07:49Z</time>
      </trkpt>
      <trkpt lat="47.66213" lon="-3.23654">
        <ele>10</ele>
        <time>2023-11-01T19:09:27Z</time>
      </trkpt>
      <trkpt lat="47.662" lon="-3.23634">
        <ele>10</ele>
        <time>2023-11-01T19:09:52Z</time>
      </trkpt>
      <trkpt lat="47.66167" lon="-3.23603">
        <ele>9</ele>
        <time>2023-11-01T19:10:44Z</time>
      </trkpt>
      <trkpt lat="47.66155" lon="-3.23584">
        <ele>9</ele>
        <time>2023-11-01T19:11:08Z</time>
      </trkpt>
      <trkpt lat="47.66144" lon="-3.23562">
        <ele>8</ele>
        <time>2023-11-01T19:11:32Z</time>
      </trkpt>
      <trkpt lat="47.66136" lon="-3.23537">
        <ele>7</ele>
        <time>2023-11-01T19:11:57Z</time>
      </trkpt>
      <trkpt lat="47.66107" lon="-3.23467">
        <ele>6</ele>
        <time>2023-11-01T19:13:11Z</time>
      </trkpt>
      <trkpt lat="47.66092" lon="-3.23451">
        <ele>6</ele>
        <time>2023-11-01T19:13:36Z</time>
      </trkpt>
      <trkpt lat="47.66021" lon="-3.23423">
        <ele>5</ele>
        <time>2023-11-01T19:15:14Z</time>
      </trkpt>
      <trkpt lat="47.65955" lon="-3.23369">
        <ele>4</ele>
        <time>2023-11-01T19:16:54Z</time>
      </trkpt>
      <trkpt lat="47.65917" lon="-3.23309">
        <ele>4</ele>
        <time>2023-11-01T19:18:08Z</time>
      </trkpt>
      <trkpt lat="47.65911" lon="-3.23284">
        <ele>4</ele>
        <time>2023-11-01T19:18:32Z</time>
      </trkpt>
      <trkpt lat="47.65912" lon="-3.23256">
        <ele>4</ele>
        <time>2023-11-01T19:18:57Z</time>
      </trkpt>
      <trkpt lat="47.65918" lon="-3.23202">
        <ele>5</ele>
        <time>2023-11-01T19:19:46Z</time>
      </trkpt>
      <trkpt lat="47.65925" lon="-3.23176">
        <ele>5</ele>
        <time>2023-11-01T19:20:12Z</time>
      </trkpt>
      <trkpt lat="47.65933" lon="-3.23123">
        <ele>5</ele>
        <time>2023-11-01T19:21:00Z</time>
      </trkpt>
      <trkpt lat="47.65934" lon="-3.23094">
        <ele>6</ele>
        <time>2023-11-01T19:21:27Z</time>
      </trkpt>
      <trkpt lat="47.65943" lon="-3.23012">
        <ele>7</ele>
        <time>2023-11-01T19:22:41Z</time>
      </trkpt>
      <trkpt lat="47.65958" lon="-3.22878">
        <ele>9</ele>
        <time>2023-11-01T19:24:43Z</time>
      </trkpt>
      <trkpt lat="47.65963" lon="-3.22852">
        <ele>10</ele>
        <time>2023-11-01T19:25:08Z</time>
      </trkpt>
      <trkpt lat="47.65961" lon="-3.22825">
        <ele>10</ele>
        <time>2023-11-01T19:25:32Z</time>
      </trkpt>
      <trkpt lat="47.65944" lon="-3.22776">
        <ele>11</ele>
        <time>2023-11-01T19:26:22Z</time>
      </trkpt>
      <trkpt lat="47.65928" lon="-3.2276">
        <ele>12</ele>
        <time>2023-11-01T19:26:47Z</time>
      </trkpt>
      <trkpt lat="47.6591" lon="-3.22763">
        <ele>11</ele>
        <time>2023-11-01T19:27:12Z</time>
      </trkpt>
      <trkpt lat="47.65894" lon="-3.22751">
        <ele>11</ele>
        <time>2023-11-01T19:27:35Z</time>
      </trkpt>
      <trkpt lat="47.65884" lon="-3.22642">
        <ele>12</ele>
        <time>2023-11-01T19:29:14Z</time>
      </trkpt>
      <trkpt lat="47.65877" lon="-3.22616">
        <ele>12</ele>
        <time>2023-11-01T19:29:39Z</time>
      </trkpt>
      <trkpt lat="47.65698" lon="-3.227">
        <ele>6</ele>
        <time>2023-11-01T19:33:50Z</time>
      </trkpt>
      <trkpt lat="47.65661" lon="-3.22704">
        <ele>5</ele>
        <time>2023-11-01T19:34:40Z</time>
      </trkpt>
      <trkpt lat="47.65625" lon="-3.22719">
        <ele>5</ele>
        <time>2023-11-01T19:35:29Z</time>
      </trkpt>
      <trkpt lat="47.65542" lon="-3.22779">
        <ele>5</ele>
        <time>2023-11-01T19:37:33Z</time>
      </trkpt>
      <trkpt lat="47.65507" lon="-3.22798">
        <ele>7</ele>
        <time>2023-11-01T19:38:22Z</time>
      </trkpt>
      <trkpt lat="47.65491" lon="-3.22813">
        <ele>7</ele>
        <time>2023-11-01T19:38:48Z</time>
      </trkpt>
      <trkpt lat="47.65434" lon="-3.22882">
        <ele>6</ele>
        <time>2023-11-01T19:40:26Z</time>
      </trkpt>
      <trkpt lat="47.65419" lon="-3.22896">
        <ele>6</ele>
        <time>2023-11-01T19:40:49Z</time>
      </trkpt>
      <trkpt lat="47.65411" lon="-3.2292">
        <ele>5</ele>
        <time>2023-11-01T19:41:13Z</time>
      </trkpt>
      <trkpt lat="47.65418" lon="-3.22895">
        <ele>6</ele>
        <time>2023-11-01T19:41:38Z</time>
      </trkpt>
      <trkpt lat="47.65434" lon="-3.22881">
        <ele>6</ele>
        <time>2023-11-01T19:42:03Z</time>
      </trkpt>
      <trkpt lat="47.65462" lon="-3.22844">
        <ele>7</ele>
        <time>2023-11-01T19:42:53Z</time>
      </trkpt>
      <trkpt lat="47.65476" lon="-3.2286">
        <ele>7</ele>
        <time>2023-11-01T19:43:16Z</time>
      </trkpt>
      <trkpt lat="47.65469" lon="-3.22853">
        <ele>7</ele>
        <time>2023-11-01T19:43:27Z</time>
      </trkpt>
      <trkpt lat="47.6545" lon="-3.22857">
        <ele>7</ele>
        <time>2023-11-01T19:43:53Z</time>
      </trkpt>
      <trkpt lat="47.65423" lon="-3.22892">
        <ele>6</ele>
        <time>2023-11-01T19:44:41Z</time>
      </trkpt>
      <trkpt lat="47.65392" lon="-3.22921">
        <ele>4</ele>
        <time>2023-11-01T19:45:30Z</time>
      </trkpt>
      <trkpt lat="47.65356" lon="-3.22902">
        <ele>2</ele>
        <time>2023-11-01T19:46:21Z</time>
      </trkpt>
      <trkpt lat="47.6534" lon="-3.22887">
        <ele>2</ele>
        <time>2023-11-01T19:46:46Z</time>
      </trkpt>
      <trkpt lat="47.65326" lon="-3.22868">
        <ele>2</ele>
        <time>2023-11-01T19:47:11Z</time>
      </trkpt>
      <trkpt lat="47.65309" lon="-3.22853">
        <ele>2</ele>
        <time>2023-11-01T19:47:38Z</time>
      </trkpt>
      <trkpt lat="47.65302" lon="-3.22827">
        <ele>2</ele>
        <time>2023-11-01T19:48:03Z</time>
      </trkpt>
      <trkpt lat="47.6529" lon="-3.22805">
        <ele>2</ele>
        <time>2023-11-01T19:48:28Z</time>
      </trkpt>
      <trkpt lat="47.65262" lon="-3.22769">
        <ele>3</ele>
        <time>2023-11-01T19:49:18Z</time>
      </trkpt>
      <trkpt lat="47.6525" lon="-3.22748">
        <ele>3</ele>
        <time>2023-11-01T19:49:43Z</time>
      </trkpt>
      <trkpt lat="47.65234" lon="-3.22734">
        <ele>3</ele>
        <time>2023-11-01T19:50:07Z</time>
      </trkpt>
      <trkpt lat="47.6522" lon="-3.22717">
        <ele>3</ele>
        <time>2023-11-01T19:50:31Z</time>
      </trkpt>
      <trkpt lat="47.65196" lon="-3.22676">
        <ele>2</ele>
        <time>2023-11-01T19:51:20Z</time>
      </trkpt>
      <trkpt lat="47.65119" lon="-3.22557">
        <ele>3</ele>
        <time>2023-11-01T19:53:49Z</time>
      </trkpt>
      <trkpt lat="47.65109" lon="-3.22532">
        <ele>3</ele>
        <time>2023-11-01T19:54:15Z</time>
      </trkpt>
      <trkpt lat="47.65081" lon="-3.22497">
        <ele>3</ele>
        <time>2023-11-01T19:55:04Z</time>
      </trkpt>
      <trkpt lat="47.65057" lon="-3.22455">
        <ele>3</ele>
        <time>2023-11-01T19:55:53Z</time>
      </trkpt>
      <trkpt lat="47.65018" lon="-3.22397">
        <ele>3</ele>
        <time>2023-11-01T19:57:07Z</time>
      </trkpt>
      <trkpt lat="47.64988" lon="-3.22362">
        <ele>3</ele>
        <time>2023-11-01T19:57:58Z</time>
      </trkpt>
      <trkpt lat="47.64915" lon="-3.22241">
        <ele>4</ele>
        <time>2023-11-01T20:00:24Z</time>
      </trkpt>
      <trkpt lat="47.64887" lon="-3.22203">
        <ele>3</ele>
        <time>2023-11-01T20:01:14Z</time>
      </trkpt>
      <trkpt lat="47.64876" lon="-3.22181">
        <ele>3</ele>
        <time>2023-11-01T20:01:39Z</time>
      </trkpt>
      <trkpt lat="47.64862" lon="-3.2216">
        <ele>3</ele>
        <time>2023-11-01T20:02:06Z</time>
      </trkpt>
      <trkpt lat="47.64853" lon="-3.22137">
        <ele>3</ele>
        <time>2023-11-01T20:02:29Z</time>
      </trkpt>
      <trkpt lat="47.64848" lon="-3.2211">
        <ele>4</ele>
        <time>2023-11-01T20:02:55Z</time>
      </trkpt>
      <trkpt lat="47.64822" lon="-3.22071">
        <ele>4</ele>
        <time>2023-11-01T20:03:44Z</time>
      </trkpt>
      <trkpt lat="47.64798" lon="-3.22029">
        <ele>3</ele>
        <time>2023-11-01T20:04:33Z</time>
      </trkpt>
      <trkpt lat="47.64791" lon="-3.22005">
        <ele>3</ele>
        <time>2023-11-01T20:04:57Z</time>
      </trkpt>
      <trkpt lat="47.64738" lon="-3.21929">
        <ele>2</ele>
        <time>2023-11-01T20:06:35Z</time>
      </trkpt>
      <trkpt lat="47.64714" lon="-3.21887">
        <ele>2</ele>
        <time>2023-11-01T20:07:25Z</time>
      </trkpt>
      <trkpt lat="47.64694" lon="-3.21842">
        <ele>2</ele>
        <time>2023-11-01T20:08:13Z</time>
      </trkpt>
      <trkpt lat="47.64605" lon="-3.21699">
        <ele>3</ele>
        <time>2023-11-01T20:11:08Z</time>
      </trkpt>
      <trkpt lat="47.6455" lon="-3.21625">
        <ele>3</ele>
        <time>2023-11-01T20:12:47Z</time>
      </trkpt>
      <trkpt lat="47.64516" lon="-3.21601">
        <ele>2</ele>
        <time>2023-11-01T20:13:38Z</time>
      </trkpt>
      <trkpt lat="47.64502" lon="-3.21584">
        <ele>2</ele>
        <time>2023-11-01T20:14:02Z</time>
      </trkpt>
      <trkpt lat="47.64458" lon="-3.21495">
        <ele>2</ele>
        <time>2023-11-01T20:15:41Z</time>
      </trkpt>
      <trkpt lat="47.64438" lon="-3.21449">
        <ele>2</ele>
        <time>2023-11-01T20:16:30Z</time>
      </trkpt>
      <trkpt lat="47.64403" lon="-3.21387">
        <ele>1</ele>
        <time>2023-11-01T20:17:43Z</time>
      </trkpt>
      <trkpt lat="47.64421" lon="-3.21386">
        <ele>1</ele>
        <time>2023-11-01T20:18:07Z</time>
      </trkpt>
      <trkpt lat="47.64439" lon="-3.2139">
        <ele>1</ele>
        <time>2023-11-01T20:18:31Z</time>
      </trkpt>
      <trkpt lat="47.64456" lon="-3.21379">
        <ele>2</ele>
        <time>2023-11-01T20:18:56Z</time>
      </trkpt>
      <trkpt lat="47.64474" lon="-3.21376">
        <ele>2</ele>
        <time>2023-11-01T20:19:20Z</time>
      </trkpt>
      <trkpt lat="47.64491" lon="-3.21387">
        <ele>3</ele>
        <time>2023-11-01T20:19:45Z</time>
      </trkpt>
      <trkpt lat="47.64504" lon="-3.21407">
        <ele>4</ele>
        <time>2023-11-01T20:20:10Z</time>
      </trkpt>
      <trkpt lat="47.64521" lon="-3.21418">
        <ele>5</ele>
        <time>2023-11-01T20:20:35Z</time>
      </trkpt>
      <trkpt lat="47.64539" lon="-3.21425">
        <ele>5</ele>
        <time>2023-11-01T20:20:59Z</time>
      </trkpt>
      <trkpt lat="47.64575" lon="-3.21422">
        <ele>7</ele>
        <time>2023-11-01T20:21:48Z</time>
      </trkpt>
      <trkpt lat="47.64591" lon="-3.21407">
        <ele>6</ele>
        <time>2023-11-01T20:22:13Z</time>
      </trkpt>
      <trkpt lat="47.64609" lon="-3.21401">
        <ele>6</ele>
        <time>2023-11-01T20:22:37Z</time>
      </trkpt>
      <trkpt lat="47.64624" lon="-3.21385">
        <ele>5</ele>
        <time>2023-11-01T20:23:02Z</time>
      </trkpt>
      <trkpt lat="47.64642" lon="-3.21375">
        <ele>5</ele>
        <time>2023-11-01T20:23:28Z</time>
      </trkpt>
      <trkpt lat="47.64654" lon="-3.21354">
        <ele>4</ele>
        <time>2023-11-01T20:23:53Z</time>
      </trkpt>
      <trkpt lat="47.64656" lon="-3.21327">
        <ele>4</ele>
        <time>2023-11-01T20:24:17Z</time>
      </trkpt>
      <trkpt lat="47.64669" lon="-3.21306">
        <ele>3</ele>
        <time>2023-11-01T20:24:43Z</time>
      </trkpt>
      <trkpt lat="47.64699" lon="-3.21274">
        <ele>2</ele>
        <time>2023-11-01T20:25:32Z</time>
      </trkpt>
      <trkpt lat="47.64715" lon="-3.21261">
        <ele>2</ele>
        <time>2023-11-01T20:25:56Z</time>
      </trkpt>
      <trkpt lat="47.64749" lon="-3.21242">
        <ele>1</ele>
        <time>2023-11-01T20:26:45Z</time>
      </trkpt>
      <trkpt lat="47.64839" lon="-3.21217">
        <ele>2</ele>
        <time>2023-11-01T20:28:47Z</time>
      </trkpt>
      <trkpt lat="47.6493" lon="-3.21182">
        <ele>2</ele>
        <time>2023-11-01T20:30:52Z</time>
      </trkpt>
      <trkpt lat="47.65002" lon="-3.21149">
        <ele>2</ele>
        <time>2023-11-01T20:32:33Z</time>
      </trkpt>
      <trkpt lat="47.65052" lon="-3.21109">
        <ele>2</ele>
        <time>2023-11-01T20:33:49Z</time>
      </trkpt>
      <trkpt lat="47.65114" lon="-3.21046">
        <ele>1</ele>
        <time>2023-11-01T20:35:29Z</time>
      </trkpt>
      <trkpt lat="47.65133" lon="-3.21046">
        <ele>4.2</ele>
        <time>2023-11-01T20:35:54Z</time>
      </trkpt>
      <trkpt lat="47.65196" lon="-3.211">
        <ele>1</ele>
        <time>2023-11-01T20:37:31Z</time>
      </trkpt>
      <trkpt lat="47.65232" lon="-3.21096">
        <ele>3.6</ele>
        <time>2023-11-01T20:38:20Z</time>
      </trkpt>
      <trkpt lat="47.65269" lon="-3.21097">
        <ele>1</ele>
        <time>2023-11-01T20:39:09Z</time>
      </trkpt>
      <trkpt lat="47.65326" lon="-3.21091">
        <ele>4</ele>
        <time>2023-11-01T20:40:25Z</time>
      </trkpt>
      <trkpt lat="47.65436" lon="-3.21096">
        <ele>2</ele>
        <time>2023-11-01T20:42:52Z</time>
      </trkpt>
      <trkpt lat="47.65455" lon="-3.21102">
        <ele>2</ele>
        <time>2023-11-01T20:43:18Z</time>
      </trkpt>
      <trkpt lat="47.65473" lon="-3.21114">
        <ele>3</ele>
        <time>2023-11-01T20:43:44Z</time>
      </trkpt>
      <trkpt lat="47.65505" lon="-3.21143">
        <ele>3</ele>
        <time>2023-11-01T20:44:34Z</time>
      </trkpt>
      <trkpt lat="47.65523" lon="-3.21151">
        <ele>3</ele>
        <time>2023-11-01T20:44:59Z</time>
      </trkpt>
      <trkpt lat="47.65559" lon="-3.21141">
        <ele>2</ele>
        <time>2023-11-01T20:45:48Z</time>
      </trkpt>
      <trkpt lat="47.65577" lon="-3.21146">
        <ele>2</ele>
        <time>2023-11-01T20:46:13Z</time>
      </trkpt>
      <trkpt lat="47.65581" lon="-3.21174">
        <ele>2</ele>
        <time>2023-11-01T20:46:38Z</time>
      </trkpt>
      <trkpt lat="47.65589" lon="-3.21198">
        <ele>3</ele>
        <time>2023-11-01T20:47:03Z</time>
      </trkpt>
      <trkpt lat="47.6559" lon="-3.21225">
        <ele>3</ele>
        <time>2023-11-01T20:47:27Z</time>
      </trkpt>
      <trkpt lat="47.65596" lon="-3.21251">
        <ele>4</ele>
        <time>2023-11-01T20:47:52Z</time>
      </trkpt>
      <trkpt lat="47.65628" lon="-3.2128">
        <ele>5</ele>
        <time>2023-11-01T20:48:42Z</time>
      </trkpt>
      <trkpt lat="47.65646" lon="-3.21292">
        <ele>5</ele>
        <time>2023-11-01T20:49:08Z</time>
      </trkpt>
      <trkpt lat="47.65664" lon="-3.213">
        <ele>5</ele>
        <time>2023-11-01T20:49:33Z</time>
      </trkpt>
      <trkpt lat="47.65719" lon="-3.21322">
        <ele>5</ele>
        <time>2023-11-01T20:50:49Z</time>
      </trkpt>
      <trkpt lat="47.65756" lon="-3.21334">
        <ele>5</ele>
        <time>2023-11-01T20:51:40Z</time>
      </trkpt>
      <trkpt lat="47.65791" lon="-3.21352">
        <ele>4</ele>
        <time>2023-11-01T20:52:29Z</time>
      </trkpt>
      <trkpt lat="47.65891" lon="-3.21428">
        <ele>5</ele>
        <time>2023-11-01T20:54:59Z</time>
      </trkpt>
      <trkpt lat="47.6591" lon="-3.21434">
        <ele>5</ele>
        <time>2023-11-01T20:55:25Z</time>
      </trkpt>
      <trkpt lat="47.65927" lon="-3.21424">
        <ele>5</ele>
        <time>2023-11-01T20:55:49Z</time>
      </trkpt>
      <trkpt lat="47.65937" lon="-3.214">
        <ele>6</ele>
        <time>2023-11-01T20:56:15Z</time>
      </trkpt>
      <trkpt lat="47.65931" lon="-3.21374">
        <ele>6</ele>
        <time>2023-11-01T20:56:39Z</time>
      </trkpt>
      <trkpt lat="47.65918" lon="-3.21353">
        <ele>6</ele>
        <time>2023-11-01T20:57:05Z</time>
      </trkpt>
      <trkpt lat="47.65902" lon="-3.2134">
        <ele>5</ele>
        <time>2023-11-01T20:57:29Z</time>
      </trkpt>
      <trkpt lat="47.65896" lon="-3.21314">
        <ele>5</ele>
        <time>2023-11-01T20:57:54Z</time>
      </trkpt>
      <trkpt lat="47.65893" lon="-3.21287">
        <ele>5</ele>
        <time>2023-11-01T20:58:19Z</time>
      </trkpt>
      <trkpt lat="47.65896" lon="-3.21259">
        <ele>5</ele>
        <time>2023-11-01T20:58:44Z</time>
      </trkpt>
      <trkpt lat="47.65903" lon="-3.21233">
        <ele>4</ele>
        <time>2023-11-01T20:59:09Z</time>
      </trkpt>
      <trkpt lat="47.65913" lon="-3.2121">
        <ele>4</ele>
        <time>2023-11-01T20:59:34Z</time>
      </trkpt>
      <trkpt lat="47.65927" lon="-3.21194">
        <ele>4</ele>
        <time>2023-11-01T20:59:57Z</time>
      </trkpt>
      <trkpt lat="47.65944" lon="-3.21184">
        <ele>4</ele>
        <time>2023-11-01T21:00:22Z</time>
      </trkpt>
      <trkpt lat="47.6598" lon="-3.21177">
        <ele>4</ele>
        <time>2023-11-01T21:01:10Z</time>
      </trkpt>
      <trkpt lat="47.65998" lon="-3.21185">
        <ele>5</ele>
        <time>2023-11-01T21:01:35Z</time>
      </trkpt>
      <trkpt lat="47.66012" lon="-3.21203">
        <ele>7</ele>
        <time>2023-11-01T21:02:00Z</time>
      </trkpt>
      <trkpt lat="47.6603" lon="-3.21207">
        <ele>8</ele>
        <time>2023-11-01T21:02:24Z</time>
      </trkpt>
      <trkpt lat="47.66048" lon="-3.21203">
        <ele>8</ele>
        <time>2023-11-01T21:02:49Z</time>
      </trkpt>
      <trkpt lat="47.66081" lon="-3.21176">
        <ele>7</ele>
        <time>2023-11-01T21:03:39Z</time>
      </trkpt>
      <trkpt lat="47.66096" lon="-3.2119">
        <ele>7</ele>
        <time>2023-11-01T21:04:03Z</time>
      </trkpt>
      <trkpt lat="47.66104" lon="-3.213">
        <ele>10</ele>
        <time>2023-11-01T21:05:42Z</time>
      </trkpt>
      <trkpt lat="47.66123" lon="-3.21301">
        <ele>10</ele>
        <time>2023-11-01T21:06:07Z</time>
      </trkpt>
      <trkpt lat="47.66157" lon="-3.21281">
        <ele>9</ele>
        <time>2023-11-01T21:06:56Z</time>
      </trkpt>
      <trkpt lat="47.66175" lon="-3.21278">
        <ele>8</ele>
        <time>2023-11-01T21:07:20Z</time>
      </trkpt>
      <trkpt lat="47.66187" lon="-3.21257">
        <ele>7</ele>
        <time>2023-11-01T21:07:45Z</time>
      </trkpt>
      <trkpt lat="47.66204" lon="-3.21248">
        <ele>5</ele>
        <time>2023-11-01T21:08:09Z</time>
      </trkpt>
      <trkpt lat="47.66223" lon="-3.21324">
        <ele>3</ele>
        <time>2023-11-01T21:09:22Z</time>
      </trkpt>
      <trkpt lat="47.66238" lon="-3.21341">
        <ele>2</ele>
        <time>2023-11-01T21:09:47Z</time>
      </trkpt>
      <trkpt lat="47.66255" lon="-3.21391">
        <ele>3</ele>
        <time>2023-11-01T21:10:38Z</time>
      </trkpt>
      <trkpt lat="47.66294" lon="-3.21452">
        <ele>3</ele>
        <time>2023-11-01T21:11:53Z</time>
      </trkpt>
      <trkpt lat="47.66338" lon="-3.21502">
        <ele>2</ele>
        <time>2023-11-01T21:13:07Z</time>
      </trkpt>
      <trkpt lat="47.66355" lon="-3.21518">
        <ele>3</ele>
        <time>2023-11-01T21:13:34Z</time>
      </trkpt>
      <trkpt lat="47.66372" lon="-3.21527">
        <ele>3</ele>
        <time>2023-11-01T21:13:58Z</time>
      </trkpt>
      <trkpt lat="47.66409" lon="-3.21534">
        <ele>3</ele>
        <time>2023-11-01T21:14:48Z</time>
      </trkpt>
      <trkpt lat="47.66444" lon="-3.21521">
        <ele>2</ele>
        <time>2023-11-01T21:15:36Z</time>
      </trkpt>
      <trkpt lat="47.66471" lon="-3.21483">
        <ele>2</ele>
        <time>2023-11-01T21:16:26Z</time>
      </trkpt>
      <trkpt lat="47.66487" lon="-3.21469">
        <ele>1</ele>
        <time>2023-11-01T21:16:50Z</time>
      </trkpt>
      <trkpt lat="47.66498" lon="-3.21491">
        <ele>2</ele>
        <time>2023-11-01T21:17:15Z</time>
      </trkpt>
      <trkpt lat="47.66494" lon="-3.21518">
        <ele>2</ele>
        <time>2023-11-01T21:17:40Z</time>
      </trkpt>
      <trkpt lat="47.66467" lon="-3.21557">
        <ele>2</ele>
        <time>2023-11-01T21:18:30Z</time>
      </trkpt>
      <trkpt lat="47.66459" lon="-3.21582">
        <ele>3</ele>
        <time>2023-11-01T21:18:55Z</time>
      </trkpt>
      <trkpt lat="47.66456" lon="-3.21609">
        <ele>3</ele>
        <time>2023-11-01T21:19:20Z</time>
      </trkpt>
      <trkpt lat="47.66469" lon="-3.21661">
        <ele>2</ele>
        <time>2023-11-01T21:20:09Z</time>
      </trkpt>
      <trkpt lat="47.665" lon="-3.2173">
        <ele>1</ele>
        <time>2023-11-01T21:21:24Z</time>
      </trkpt>
      <trkpt lat="47.66496" lon="-3.21758">
        <ele>2</ele>
        <time>2023-11-01T21:21:50Z</time>
      </trkpt>
      <trkpt lat="47.66486" lon="-3.21779">
        <ele>3</ele>
        <time>2023-11-01T21:22:13Z</time>
      </trkpt>
      <trkpt lat="47.66498" lon="-3.21811">
        <ele>4</ele>
        <time>2023-11-01T21:22:46Z</time>
      </trkpt>
      <trkpt lat="47.66499" lon="-3.21821">
        <ele>4</ele>
        <time>2023-11-01T21:22:55Z</time>
      </trkpt>
      <trkpt lat="47.6651" lon="-3.21844">
        <ele>5</ele>
        <time>2023-11-01T21:23:20Z</time>
      </trkpt>
      <trkpt lat="47.6658" lon="-3.21882">
        <ele>5</ele>
        <time>2023-11-01T21:25:00Z</time>
      </trkpt>
      <trkpt lat="47.66599" lon="-3.21889">
        <ele>5</ele>
        <time>2023-11-01T21:25:26Z</time>
      </trkpt>
      <trkpt lat="47.66618" lon="-3.21889">
        <ele>6</ele>
        <time>2023-11-01T21:25:51Z</time>
      </trkpt>
      <trkpt lat="47.66635" lon="-3.219">
        <ele>6</ele>
        <time>2023-11-01T21:26:16Z</time>
      </trkpt>
      <trkpt lat="47.6665" lon="-3.21883">
        <ele>6</ele>
        <time>2023-11-01T21:26:41Z</time>
      </trkpt>
      <trkpt lat="47.66658" lon="-3.21858">
        <ele>5</ele>
        <time>2023-11-01T21:27:06Z</time>
      </trkpt>
      <trkpt lat="47.66655" lon="-3.21831">
        <ele>4</ele>
        <time>2023-11-01T21:27:30Z</time>
      </trkpt>
      <trkpt lat="47.66666" lon="-3.21809">
        <ele>3</ele>
        <time>2023-11-01T21:27:55Z</time>
      </trkpt>
      <trkpt lat="47.66682" lon="-3.21794">
        <ele>3</ele>
        <time>2023-11-01T21:28:20Z</time>
      </trkpt>
      <trkpt lat="47.66701" lon="-3.21792">
        <ele>4</ele>
        <time>2023-11-01T21:28:46Z</time>
      </trkpt>
      <trkpt lat="47.66719" lon="-3.21785">
        <ele>4</ele>
        <time>2023-11-01T21:29:11Z</time>
      </trkpt>
      <trkpt lat="47.66753" lon="-3.21758">
        <ele>4</ele>
        <time>2023-11-01T21:30:02Z</time>
      </trkpt>
      <trkpt lat="47.66764" lon="-3.21737">
        <ele>4</ele>
        <time>2023-11-01T21:30:26Z</time>
      </trkpt>
      <trkpt lat="47.66781" lon="-3.21723">
        <ele>4</ele>
        <time>2023-11-01T21:30:52Z</time>
      </trkpt>
      <trkpt lat="47.66825" lon="-3.21673">
        <ele>3</ele>
        <time>2023-11-01T21:32:06Z</time>
      </trkpt>
      <trkpt lat="47.6684" lon="-3.21687">
        <ele>4</ele>
        <time>2023-11-01T21:32:29Z</time>
      </trkpt>
      <trkpt lat="47.66858" lon="-3.21692">
        <ele>5</ele>
        <time>2023-11-01T21:32:54Z</time>
      </trkpt>
      <trkpt lat="47.66875" lon="-3.21683">
        <ele>5</ele>
        <time>2023-11-01T21:33:18Z</time>
      </trkpt>
      <trkpt lat="47.66872" lon="-3.21656">
        <ele>5</ele>
        <time>2023-11-01T21:33:43Z</time>
      </trkpt>
      <trkpt lat="47.6686" lon="-3.21603">
        <ele>5</ele>
        <time>2023-11-01T21:34:33Z</time>
      </trkpt>
      <trkpt lat="47.66864" lon="-3.21576">
        <ele>5</ele>
        <time>2023-11-01T21:34:58Z</time>
      </trkpt>
      <trkpt lat="47.6688" lon="-3.21564">
        <ele>6</ele>
        <time>2023-11-01T21:35:22Z</time>
      </trkpt>
      <trkpt lat="47.66871" lon="-3.21482">
        <ele>6</ele>
        <time>2023-11-01T21:36:36Z</time>
      </trkpt>
      <trkpt lat="47.66871" lon="-3.21454">
        <ele>4</ele>
        <time>2023-11-01T21:37:01Z</time>
      </trkpt>
      <trkpt lat="47.66878" lon="-3.21429">
        <ele>3</ele>
        <time>2023-11-01T21:37:26Z</time>
      </trkpt>
      <trkpt lat="47.66894" lon="-3.21415">
        <ele>2</ele>
        <time>2023-11-01T21:37:51Z</time>
      </trkpt>
      <trkpt lat="47.66912" lon="-3.21407">
        <ele>3</ele>
        <time>2023-11-01T21:38:16Z</time>
      </trkpt>
      <trkpt lat="47.66925" lon="-3.21425">
        <ele>3</ele>
        <time>2023-11-01T21:38:39Z</time>
      </trkpt>
      <trkpt lat="47.66942" lon="-3.21436">
        <ele>4</ele>
        <time>2023-11-01T21:39:04Z</time>
      </trkpt>
      <trkpt lat="47.66978" lon="-3.21443">
        <ele>3</ele>
        <time>2023-11-01T21:39:53Z</time>
      </trkpt>
      <trkpt lat="47.66995" lon="-3.21455">
        <ele>3</ele>
        <time>2023-11-01T21:40:18Z</time>
      </trkpt>
      <trkpt lat="47.67018" lon="-3.21496">
        <ele>5</ele>
        <time>2023-11-01T21:41:06Z</time>
      </trkpt>
      <trkpt lat="47.67037" lon="-3.215">
        <ele>4</ele>
        <time>2023-11-01T21:41:31Z</time>
      </trkpt>
      <trkpt lat="47.6709" lon="-3.2152">
        <ele>2</ele>
        <time>2023-11-01T21:42:44Z</time>
      </trkpt>
      <trkpt lat="47.67103" lon="-3.21539">
        <ele>3</ele>
        <time>2023-11-01T21:43:09Z</time>
      </trkpt>
      <trkpt lat="47.67114" lon="-3.21562">
        <ele>3</ele>
        <time>2023-11-01T21:43:34Z</time>
      </trkpt>
      <trkpt lat="47.67122" lon="-3.21587">
        <ele>3</ele>
        <time>2023-11-01T21:43:59Z</time>
      </trkpt>
      <trkpt lat="47.67126" lon="-3.21614">
        <ele>4</ele>
        <time>2023-11-01T21:44:24Z</time>
      </trkpt>
      <trkpt lat="47.67133" lon="-3.2164">
        <ele>5</ele>
        <time>2023-11-01T21:44:49Z</time>
      </trkpt>
      <trkpt lat="47.67143" lon="-3.21662">
        <ele>5</ele>
        <time>2023-11-01T21:45:13Z</time>
      </trkpt>
      <trkpt lat="47.67147" lon="-3.2169">
        <ele>6</ele>
        <time>2023-11-01T21:45:38Z</time>
      </trkpt>
      <trkpt lat="47.67202" lon="-3.21701">
        <ele>6</ele>
        <time>2023-11-01T21:46:52Z</time>
      </trkpt>
      <trkpt lat="47.6722" lon="-3.21695">
        <ele>6</ele>
        <time>2023-11-01T21:47:17Z</time>
      </trkpt>
      <trkpt lat="47.67236" lon="-3.2168">
        <ele>5</ele>
        <time>2023-11-01T21:47:42Z</time>
      </trkpt>
      <trkpt lat="47.67243" lon="-3.21655">
        <ele>5</ele>
        <time>2023-11-01T21:48:07Z</time>
      </trkpt>
      <trkpt lat="47.67274" lon="-3.21623">
        <ele>4</ele>
        <time>2023-11-01T21:48:57Z</time>
      </trkpt>
      <trkpt lat="47.67293" lon="-3.21624">
        <ele>4</ele>
        <time>2023-11-01T21:49:22Z</time>
      </trkpt>
      <trkpt lat="47.67287" lon="-3.2165">
        <ele>4</ele>
        <time>2023-11-01T21:49:47Z</time>
      </trkpt>
      <trkpt lat="47.67288" lon="-3.21677">
        <ele>5</ele>
        <time>2023-11-01T21:50:11Z</time>
      </trkpt>
      <trkpt lat="47.67305" lon="-3.21667">
        <ele>4</ele>
        <time>2023-11-01T21:50:36Z</time>
      </trkpt>
      <trkpt lat="47.67319" lon="-3.21687">
        <ele>4</ele>
        <time>2023-11-01T21:51:02Z</time>
      </trkpt>
      <trkpt lat="47.67316" lon="-3.21714">
        <ele>5</ele>
        <time>2023-11-01T21:51:26Z</time>
      </trkpt>
      <trkpt lat="47.67321" lon="-3.2174">
        <ele>5</ele>
        <time>2023-11-01T21:51:51Z</time>
      </trkpt>
      <trkpt lat="47.67338" lon="-3.21731">
        <ele>5</ele>
        <time>2023-11-01T21:52:15Z</time>
      </trkpt>
      <trkpt lat="47.67393" lon="-3.21745">
        <ele>6</ele>
        <time>2023-11-01T21:53:29Z</time>
      </trkpt>
      <trkpt lat="47.67411" lon="-3.21737">
        <ele>6</ele>
        <time>2023-11-01T21:53:54Z</time>
      </trkpt>
      <trkpt lat="47.67429" lon="-3.21741">
        <ele>6</ele>
        <time>2023-11-01T21:54:18Z</time>
      </trkpt>
      <trkpt lat="47.67439" lon="-3.21718">
        <ele>7</ele>
        <time>2023-11-01T21:54:43Z</time>
      </trkpt>
      <trkpt lat="47.67436" lon="-3.21692">
        <ele>7</ele>
        <time>2023-11-01T21:55:07Z</time>
      </trkpt>
      <trkpt lat="47.67435" lon="-3.21636">
        <ele>7</ele>
        <time>2023-11-01T21:55:57Z</time>
      </trkpt>
      <trkpt lat="47.67442" lon="-3.21611">
        <ele>7</ele>
        <time>2023-11-01T21:56:21Z</time>
      </trkpt>
      <trkpt lat="47.67435" lon="-3.21586">
        <ele>7</ele>
        <time>2023-11-01T21:56:46Z</time>
      </trkpt>
      <trkpt lat="47.67431" lon="-3.2156">
        <ele>7</ele>
        <time>2023-11-01T21:57:10Z</time>
      </trkpt>
      <trkpt lat="47.67416" lon="-3.2151">
        <ele>7</ele>
        <time>2023-11-01T21:57:59Z</time>
      </trkpt>
      <trkpt lat="47.67404" lon="-3.21489">
        <ele>7</ele>
        <time>2023-11-01T21:58:24Z</time>
      </trkpt>
      <trkpt lat="47.67389" lon="-3.21474">
        <ele>7</ele>
        <time>2023-11-01T21:58:48Z</time>
      </trkpt>
      <trkpt lat="47.6734" lon="-3.21435">
        <ele>7</ele>
        <time>2023-11-01T22:00:02Z</time>
      </trkpt>
      <trkpt lat="47.67308" lon="-3.21405">
        <ele>8</ele>
        <time>2023-11-01T22:00:52Z</time>
      </trkpt>
      <trkpt lat="47.6726" lon="-3.21365">
        <ele>9</ele>
        <time>2023-11-01T22:02:06Z</time>
      </trkpt>
      <trkpt lat="47.67261" lon="-3.21338">
        <ele>9</ele>
        <time>2023-11-01T22:02:30Z</time>
      </trkpt>
      <trkpt lat="47.67254" lon="-3.21313">
        <ele>9</ele>
        <time>2023-11-01T22:02:55Z</time>
      </trkpt>
      <trkpt lat="47.67235" lon="-3.21266">
        <ele>7</ele>
        <time>2023-11-01T22:03:44Z</time>
      </trkpt>
      <trkpt lat="47.67229" lon="-3.21239">
        <ele>7</ele>
        <time>2023-11-01T22:04:09Z</time>
      </trkpt>
      <trkpt lat="47.6722" lon="-3.21214">
        <ele>7</ele>
        <time>2023-11-01T22:04:35Z</time>
      </trkpt>
      <trkpt lat="47.67206" lon="-3.21135">
        <ele>8</ele>
        <time>2023-11-01T22:05:48Z</time>
      </trkpt>
      <trkpt lat="47.672" lon="-3.2108">
        <ele>9</ele>
        <time>2023-11-01T22:06:38Z</time>
      </trkpt>
      <trkpt lat="47.6719" lon="-3.21056">
        <ele>8</ele>
        <time>2023-11-01T22:07:04Z</time>
      </trkpt>
      <trkpt lat="47.67183" lon="-3.21031">
        <ele>8</ele>
        <time>2023-11-01T22:07:28Z</time>
      </trkpt>
      <trkpt lat="47.67177" lon="-3.20977">
        <ele>7</ele>
        <time>2023-11-01T22:08:17Z</time>
      </trkpt>
      <trkpt lat="47.67168" lon="-3.20953">
        <ele>5</ele>
        <time>2023-11-01T22:08:42Z</time>
      </trkpt>
      <trkpt lat="47.67173" lon="-3.20927">
        <ele>5</ele>
        <time>2023-11-01T22:09:06Z</time>
      </trkpt>
      <trkpt lat="47.67166" lon="-3.20902">
        <ele>4</ele>
        <time>2023-11-01T22:09:30Z</time>
      </trkpt>
      <trkpt lat="47.67201" lon="-3.20889">
        <ele>5</ele>
        <time>2023-11-01T22:10:19Z</time>
      </trkpt>
      <trkpt lat="47.67183" lon="-3.20894">
        <ele>4</ele>
        <time>2023-11-01T22:10:43Z</time>
      </trkpt>
      <trkpt lat="47.67168" lon="-3.20878">
        <ele>3</ele>
        <time>2023-11-01T22:11:08Z</time>
      </trkpt>
      <trkpt lat="47.67161" lon="-3.20854">
        <ele>2</ele>
        <time>2023-11-01T22:11:31Z</time>
      </trkpt>
      <trkpt lat="47.67158" lon="-3.20883">
        <ele>3</ele>
        <time>2023-11-01T22:11:58Z</time>
      </trkpt>
      <trkpt lat="47.67176" lon="-3.2089">
        <ele>4</ele>
        <time>2023-11-01T22:12:22Z</time>
      </trkpt>
      <trkpt lat="47.67213" lon="-3.20888">
        <ele>5</ele>
        <time>2023-11-01T22:13:12Z</time>
      </trkpt>
      <trkpt lat="47.67228" lon="-3.20905">
        <ele>7</ele>
        <time>2023-11-01T22:13:37Z</time>
      </trkpt>
      <trkpt lat="47.67237" lon="-3.2088">
        <ele>6</ele>
        <time>2023-11-01T22:14:02Z</time>
      </trkpt>
      <trkpt lat="47.67227" lon="-3.20827">
        <ele>4</ele>
        <time>2023-11-01T22:14:52Z</time>
      </trkpt>
      <trkpt lat="47.67211" lon="-3.20778">
        <ele>5</ele>
        <time>2023-11-01T22:15:41Z</time>
      </trkpt>
      <trkpt lat="47.67179" lon="-3.20749">
        <ele>4</ele>
        <time>2023-11-01T22:16:31Z</time>
      </trkpt>
      <trkpt lat="47.67186" lon="-3.20723">
        <ele>5</ele>
        <time>2023-11-01T22:16:56Z</time>
      </trkpt>
      <trkpt lat="47.67179" lon="-3.20697">
        <ele>5</ele>
        <time>2023-11-01T22:17:21Z</time>
      </trkpt>
      <trkpt lat="47.67172" lon="-3.20644">
        <ele>5</ele>
        <time>2023-11-01T22:18:10Z</time>
      </trkpt>
      <trkpt lat="47.67175" lon="-3.20617">
        <ele>4</ele>
        <time>2023-11-01T22:18:34Z</time>
      </trkpt>
      <trkpt lat="47.67187" lon="-3.20597">
        <ele>4</ele>
        <time>2023-11-01T22:18:58Z</time>
      </trkpt>
      <trkpt lat="47.67203" lon="-3.20585">
        <ele>4</ele>
        <time>2023-11-01T22:19:22Z</time>
      </trkpt>
      <trkpt lat="47.67217" lon="-3.20568">
        <ele>3</ele>
        <time>2023-11-01T22:19:46Z</time>
      </trkpt>
      <trkpt lat="47.67235" lon="-3.20556">
        <ele>3</ele>
        <time>2023-11-01T22:20:13Z</time>
      </trkpt>
      <trkpt lat="47.67252" lon="-3.20565">
        <ele>4</ele>
        <time>2023-11-01T22:20:37Z</time>
      </trkpt>
      <trkpt lat="47.6726" lon="-3.2059">
        <ele>5</ele>
        <time>2023-11-01T22:21:02Z</time>
      </trkpt>
      <trkpt lat="47.67265" lon="-3.20617">
        <ele>6</ele>
        <time>2023-11-01T22:21:27Z</time>
      </trkpt>
      <trkpt lat="47.67274" lon="-3.20641">
        <ele>7</ele>
        <time>2023-11-01T22:21:52Z</time>
      </trkpt>
      <trkpt lat="47.67287" lon="-3.20661">
        <ele>7</ele>
        <time>2023-11-01T22:22:17Z</time>
      </trkpt>
      <trkpt lat="47.67304" lon="-3.20675">
        <ele>6</ele>
        <time>2023-11-01T22:22:42Z</time>
      </trkpt>
      <trkpt lat="47.67322" lon="-3.20672">
        <ele>6</ele>
        <time>2023-11-01T22:23:07Z</time>
      </trkpt>
      <trkpt lat="47.67371" lon="-3.20712">
        <ele>4</ele>
        <time>2023-11-01T22:24:21Z</time>
      </trkpt>
      <trkpt lat="47.67369" lon="-3.20741">
        <ele>5</ele>
        <time>2023-11-01T22:24:47Z</time>
      </trkpt>
      <trkpt lat="47.67385" lon="-3.20791">
        <ele>7</ele>
        <time>2023-11-01T22:25:37Z</time>
      </trkpt>
      <trkpt lat="47.67397" lon="-3.20813">
        <ele>8</ele>
        <time>2023-11-01T22:26:03Z</time>
      </trkpt>
      <trkpt lat="47.67411" lon="-3.2083">
        <ele>9</ele>
        <time>2023-11-01T22:26:27Z</time>
      </trkpt>
      <trkpt lat="47.67447" lon="-3.20843">
        <ele>8</ele>
        <time>2023-11-01T22:27:16Z</time>
      </trkpt>
      <trkpt lat="47.67464" lon="-3.20854">
        <ele>7</ele>
        <time>2023-11-01T22:27:41Z</time>
      </trkpt>
      <trkpt lat="47.67501" lon="-3.20861">
        <ele>6</ele>
        <time>2023-11-01T22:28:31Z</time>
      </trkpt>
      <trkpt lat="47.6752" lon="-3.20862">
        <ele>5</ele>
        <time>2023-11-01T22:28:56Z</time>
      </trkpt>
      <trkpt lat="47.67557" lon="-3.20874">
        <ele>4</ele>
        <time>2023-11-01T22:29:47Z</time>
      </trkpt>
      <trkpt lat="47.67589" lon="-3.20902">
        <ele>5</ele>
        <time>2023-11-01T22:30:36Z</time>
      </trkpt>
      <trkpt lat="47.67607" lon="-3.20904">
        <ele>5</ele>
        <time>2023-11-01T22:31:00Z</time>
      </trkpt>
      <trkpt lat="47.6764" lon="-3.20878">
        <ele>5</ele>
        <time>2023-11-01T22:31:50Z</time>
      </trkpt>
      <trkpt lat="47.67655" lon="-3.20863">
        <ele>5</ele>
        <time>2023-11-01T22:32:14Z</time>
      </trkpt>
      <trkpt lat="47.6767" lon="-3.20845">
        <ele>5</ele>
        <time>2023-11-01T22:32:40Z</time>
      </trkpt>
      <trkpt lat="47.67695" lon="-3.20802">
        <ele>4</ele>
        <time>2023-11-01T22:33:31Z</time>
      </trkpt>
      <trkpt lat="47.67695" lon="-3.20775">
        <ele>4</ele>
        <time>2023-11-01T22:33:55Z</time>
      </trkpt>
      <trkpt lat="47.67687" lon="-3.20751">
        <ele>2</ele>
        <time>2023-11-01T22:34:19Z</time>
      </trkpt>
      <trkpt lat="47.67692" lon="-3.20725">
        <ele>3</ele>
        <time>2023-11-01T22:34:44Z</time>
      </trkpt>
      <trkpt lat="47.67686" lon="-3.207">
        <ele>4</ele>
        <time>2023-11-01T22:35:08Z</time>
      </trkpt>
      <trkpt lat="47.67672" lon="-3.20681">
        <ele>3</ele>
        <time>2023-11-01T22:35:33Z</time>
      </trkpt>
      <trkpt lat="47.67665" lon="-3.20627">
        <ele>4</ele>
        <time>2023-11-01T22:36:22Z</time>
      </trkpt>
      <trkpt lat="47.67667" lon="-3.206">
        <ele>5</ele>
        <time>2023-11-01T22:36:47Z</time>
      </trkpt>
      <trkpt lat="47.67676" lon="-3.20576">
        <ele>5</ele>
        <time>2023-11-01T22:37:11Z</time>
      </trkpt>
      <trkpt lat="47.67691" lon="-3.20562">
        <ele>6</ele>
        <time>2023-11-01T22:37:35Z</time>
      </trkpt>
      <trkpt lat="47.67696" lon="-3.20535">
        <ele>5</ele>
        <time>2023-11-01T22:38:00Z</time>
      </trkpt>
      <trkpt lat="47.67691" lon="-3.20399">
        <ele>3</ele>
        <time>2023-11-01T22:40:03Z</time>
      </trkpt>
      <trkpt lat="47.67687" lon="-3.20373">
        <ele>3</ele>
        <time>2023-11-01T22:40:26Z</time>
      </trkpt>
      <trkpt lat="47.67672" lon="-3.20357">
        <ele>2</ele>
        <time>2023-11-01T22:40:51Z</time>
      </trkpt>
      <trkpt lat="47.67654" lon="-3.20366">
        <ele>1</ele>
        <time>2023-11-01T22:41:16Z</time>
      </trkpt>
      <trkpt lat="47.67618" lon="-3.20367">
        <ele>1</ele>
        <time>2023-11-01T22:42:05Z</time>
      </trkpt>
      <trkpt lat="47.67605" lon="-3.20346">
        <ele>2.6</ele>
        <time>2023-11-01T22:42:30Z</time>
      </trkpt>
      <trkpt lat="47.67601" lon="-3.2032">
        <ele>2.3</ele>
        <time>2023-11-01T22:42:54Z</time>
      </trkpt>
      <trkpt lat="47.67599" lon="-3.20265">
        <ele>3.5</ele>
        <time>2023-11-01T22:43:44Z</time>
      </trkpt>
      <trkpt lat="47.6758" lon="-3.20217">
        <ele>4.4</ele>
        <time>2023-11-01T22:44:34Z</time>
      </trkpt>
      <trkpt lat="47.67578" lon="-3.2019">
        <ele>5.6</ele>
        <time>2023-11-01T22:44:58Z</time>
      </trkpt>
      <trkpt lat="47.6758" lon="-3.20163">
        <ele>4.6</ele>
        <time>2023-11-01T22:45:22Z</time>
      </trkpt>
      <trkpt lat="47.67589" lon="-3.20138">
        <ele>5</ele>
        <time>2023-11-01T22:45:48Z</time>
      </trkpt>
      <trkpt lat="47.67623" lon="-3.20157">
        <ele>4.4</ele>
        <time>2023-11-01T22:46:36Z</time>
      </trkpt>
      <trkpt lat="47.6764" lon="-3.2017">
        <ele>3.9</ele>
        <time>2023-11-01T22:47:02Z</time>
      </trkpt>
      <trkpt lat="47.67646" lon="-3.20196">
        <ele>3.8</ele>
        <time>2023-11-01T22:47:27Z</time>
      </trkpt>
      <trkpt lat="47.67655" lon="-3.20219">
        <ele>4.3</ele>
        <time>2023-11-01T22:47:51Z</time>
      </trkpt>
      <trkpt lat="47.67669" lon="-3.20238">
        <ele>3.9</ele>
        <time>2023-11-01T22:48:16Z</time>
      </trkpt>
      <trkpt lat="47.67685" lon="-3.20249">
        <ele>4</ele>
        <time>2023-11-01T22:48:39Z</time>
      </trkpt>
      <trkpt lat="47.677" lon="-3.20267">
        <ele>1</ele>
        <time>2023-11-01T22:49:05Z</time>
      </trkpt>
      <trkpt lat="47.67716" lon="-3.20278">
        <ele>2</ele>
        <time>2023-11-01T22:49:29Z</time>
      </trkpt>
      <trkpt lat="47.6773" lon="-3.20296">
        <ele>3</ele>
        <time>2023-11-01T22:49:53Z</time>
      </trkpt>
      <trkpt lat="47.67748" lon="-3.20304">
        <ele>4</ele>
        <time>2023-11-01T22:50:18Z</time>
      </trkpt>
      <trkpt lat="47.67767" lon="-3.20302">
        <ele>5</ele>
        <time>2023-11-01T22:50:44Z</time>
      </trkpt>
      <trkpt lat="47.67785" lon="-3.20306">
        <ele>6</ele>
        <time>2023-11-01T22:51:08Z</time>
      </trkpt>
      <trkpt lat="47.67802" lon="-3.20317">
        <ele>7</ele>
        <time>2023-11-01T22:51:33Z</time>
      </trkpt>
      <trkpt lat="47.6782" lon="-3.20322">
        <ele>7</ele>
        <time>2023-11-01T22:51:57Z</time>
      </trkpt>
      <trkpt lat="47.67839" lon="-3.20322">
        <ele>8</ele>
        <time>2023-11-01T22:52:23Z</time>
      </trkpt>
      <trkpt lat="47.67875" lon="-3.20331">
        <ele>8</ele>
        <time>2023-11-01T22:53:11Z</time>
      </trkpt>
      <trkpt lat="47.67878" lon="-3.20357">
        <ele>9</ele>
        <time>2023-11-01T22:53:35Z</time>
      </trkpt>
      <trkpt lat="47.67888" lon="-3.20381">
        <ele>9</ele>
        <time>2023-11-01T22:54:00Z</time>
      </trkpt>
      <trkpt lat="47.67924" lon="-3.204">
        <ele>10</ele>
        <time>2023-11-01T22:54:51Z</time>
      </trkpt>
      <trkpt lat="47.6796" lon="-3.20409">
        <ele>8</ele>
        <time>2023-11-01T22:55:40Z</time>
      </trkpt>
      <trkpt lat="47.68014" lon="-3.20418">
        <ele>7</ele>
        <time>2023-11-01T22:56:53Z</time>
      </trkpt>
      <trkpt lat="47.68031" lon="-3.20428">
        <ele>7</ele>
        <time>2023-11-01T22:57:17Z</time>
      </trkpt>
      <trkpt lat="47.68042" lon="-3.20406">
        <ele>7</ele>
        <time>2023-11-01T22:57:42Z</time>
      </trkpt>
      <trkpt lat="47.68069" lon="-3.20367">
        <ele>8</ele>
        <time>2023-11-01T22:58:32Z</time>
      </trkpt>
      <trkpt lat="47.68091" lon="-3.20321">
        <ele>9</ele>
        <time>2023-11-01T22:59:23Z</time>
      </trkpt>
      <trkpt lat="47.68154" lon="-3.20217">
        <ele>9</ele>
        <time>2023-11-01T23:01:28Z</time>
      </trkpt>
      <trkpt lat="47.68211" lon="-3.20143">
        <ele>7</ele>
        <time>2023-11-01T23:03:09Z</time>
      </trkpt>
      <trkpt lat="47.68256" lon="-3.20092">
        <ele>6</ele>
        <time>2023-11-01T23:04:25Z</time>
      </trkpt>
      <trkpt lat="47.68271" lon="-3.20078">
        <ele>5</ele>
        <time>2023-11-01T23:04:49Z</time>
      </trkpt>
      <trkpt lat="47.68286" lon="-3.20059">
        <ele>4</ele>
        <time>2023-11-01T23:05:15Z</time>
      </trkpt>
      <trkpt lat="47.68303" lon="-3.20053">
        <ele>4</ele>
        <time>2023-11-01T23:05:38Z</time>
      </trkpt>
      <trkpt lat="47.68364" lon="-3.20115">
        <ele>3</ele>
        <time>2023-11-01T23:07:17Z</time>
      </trkpt>
      <trkpt lat="47.68376" lon="-3.20136">
        <ele>3</ele>
        <time>2023-11-01T23:07:42Z</time>
      </trkpt>
      <trkpt lat="47.68374" lon="-3.20163">
        <ele>4</ele>
        <time>2023-11-01T23:08:06Z</time>
      </trkpt>
      <trkpt lat="47.68388" lon="-3.2018">
        <ele>3</ele>
        <time>2023-11-01T23:08:30Z</time>
      </trkpt>
      <trkpt lat="47.68394" lon="-3.20205">
        <ele>3</ele>
        <time>2023-11-01T23:08:54Z</time>
      </trkpt>
      <trkpt lat="47.68389" lon="-3.20231">
        <ele>4</ele>
        <time>2023-11-01T23:09:18Z</time>
      </trkpt>
      <trkpt lat="47.68377" lon="-3.20251">
        <ele>4</ele>
        <time>2023-11-01T23:09:42Z</time>
      </trkpt>
      <trkpt lat="47.68375" lon="-3.20279">
        <ele>5</ele>
        <time>2023-11-01T23:10:08Z</time>
      </trkpt>
      <trkpt lat="47.68382" lon="-3.20305">
        <ele>4</ele>
        <time>2023-11-01T23:10:33Z</time>
      </trkpt>
      <trkpt lat="47.68384" lon="-3.20331">
        <ele>4</ele>
        <time>2023-11-01T23:10:56Z</time>
      </trkpt>
      <trkpt lat="47.684" lon="-3.20383">
        <ele>2</ele>
        <time>2023-11-01T23:11:48Z</time>
      </trkpt>
      <trkpt lat="47.68401" lon="-3.20411">
        <ele>2</ele>
        <time>2023-11-01T23:12:13Z</time>
      </trkpt>
      <trkpt lat="47.68387" lon="-3.2043">
        <ele>4</ele>
        <time>2023-11-01T23:12:38Z</time>
      </trkpt>
      <trkpt lat="47.68389" lon="-3.20458">
        <ele>4</ele>
        <time>2023-11-01T23:13:03Z</time>
      </trkpt>
      <trkpt lat="47.68403" lon="-3.20507">
        <ele>3</ele>
        <time>2023-11-01T23:13:51Z</time>
      </trkpt>
      <trkpt lat="47.68416" lon="-3.20526">
        <ele>3</ele>
        <time>2023-11-01T23:14:16Z</time>
      </trkpt>
      <trkpt lat="47.68435" lon="-3.20526">
        <ele>2</ele>
        <time>2023-11-01T23:14:41Z</time>
      </trkpt>
      <trkpt lat="47.68451" lon="-3.20539">
        <ele>2</ele>
        <time>2023-11-01T23:15:05Z</time>
      </trkpt>
      <trkpt lat="47.68454" lon="-3.20566">
        <ele>2</ele>
        <time>2023-11-01T23:15:30Z</time>
      </trkpt>
      <trkpt lat="47.68446" lon="-3.2062">
        <ele>4</ele>
        <time>2023-11-01T23:16:19Z</time>
      </trkpt>
      <trkpt lat="47.68438" lon="-3.20645">
        <ele>5</ele>
        <time>2023-11-01T23:16:44Z</time>
      </trkpt>
      <trkpt lat="47.68438" lon="-3.20672">
        <ele>5</ele>
        <time>2023-11-01T23:17:09Z</time>
      </trkpt>
      <trkpt lat="47.68422" lon="-3.20685">
        <ele>6</ele>
        <time>2023-11-01T23:17:33Z</time>
      </trkpt>
      <trkpt lat="47.68404" lon="-3.20687">
        <ele>6</ele>
        <time>2023-11-01T23:17:57Z</time>
      </trkpt>
      <trkpt lat="47.68385" lon="-3.20693">
        <ele>5</ele>
        <time>2023-11-01T23:18:23Z</time>
      </trkpt>
      <trkpt lat="47.68367" lon="-3.2069">
        <ele>5</ele>
        <time>2023-11-01T23:18:47Z</time>
      </trkpt>
      <trkpt lat="47.68359" lon="-3.20665">
        <ele>6</ele>
        <time>2023-11-01T23:19:12Z</time>
      </trkpt>
      <trkpt lat="47.68344" lon="-3.20647">
        <ele>6</ele>
        <time>2023-11-01T23:19:38Z</time>
      </trkpt>
      <trkpt lat="47.68327" lon="-3.2066">
        <ele>5</ele>
        <time>2023-11-01T23:20:03Z</time>
      </trkpt>
      <trkpt lat="47.68338" lon="-3.20683">
        <ele>5</ele>
        <time>2023-11-01T23:20:29Z</time>
      </trkpt>
      <trkpt lat="47.68355" lon="-3.20697">
        <ele>5</ele>
        <time>2023-11-01T23:20:55Z</time>
      </trkpt>
      <trkpt lat="47.68368" lon="-3.20716">
        <ele>4</ele>
        <time>2023-11-01T23:21:19Z</time>
      </trkpt>
      <trkpt lat="47.68385" lon="-3.20728">
        <ele>4</ele>
        <time>2023-11-01T23:21:44Z</time>
      </trkpt>
      <trkpt lat="47.68393" lon="-3.20753">
        <ele>3</ele>
        <time>2023-11-01T23:22:09Z</time>
      </trkpt>
      <trkpt lat="47.68411" lon="-3.20767">
        <ele>2</ele>
        <time>2023-11-01T23:22:36Z</time>
      </trkpt>
      <trkpt lat="47.68427" lon="-3.20754">
        <ele>2</ele>
        <time>2023-11-01T23:23:00Z</time>
      </trkpt>
      <trkpt lat="47.6844" lon="-3.20774">
        <ele>1</ele>
        <time>2023-11-01T23:23:25Z</time>
      </trkpt>
      <trkpt lat="47.6843" lon="-3.20799">
        <ele>2</ele>
        <time>2023-11-01T23:23:51Z</time>
      </trkpt>
      <trkpt lat="47.68434" lon="-3.20826">
        <ele>2</ele>
        <time>2023-11-01T23:24:16Z</time>
      </trkpt>
      <trkpt lat="47.68441" lon="-3.2085">
        <ele>2</ele>
        <time>2023-11-01T23:24:40Z</time>
      </trkpt>
      <trkpt lat="47.68441" lon="-3.20877">
        <ele>2</ele>
        <time>2023-11-01T23:25:04Z</time>
      </trkpt>
      <trkpt lat="47.68436" lon="-3.20903">
        <ele>2</ele>
        <time>2023-11-01T23:25:28Z</time>
      </trkpt>
      <trkpt lat="47.68427" lon="-3.20927">
        <ele>2</ele>
        <time>2023-11-01T23:25:53Z</time>
      </trkpt>
      <trkpt lat="47.68419" lon="-3.20981">
        <ele>1</ele>
        <time>2023-11-01T23:26:43Z</time>
      </trkpt>
      <trkpt lat="47.6841" lon="-3.21005">
        <ele>1</ele>
        <time>2023-11-01T23:27:07Z</time>
      </trkpt>
      <trkpt lat="47.68374" lon="-3.20994">
        <ele>2</ele>
        <time>2023-11-01T23:27:56Z</time>
      </trkpt>
      <trkpt lat="47.68358" lon="-3.21006">
        <ele>2</ele>
        <time>2023-11-01T23:28:20Z</time>
      </trkpt>
      <trkpt lat="47.68376" lon="-3.21011">
        <ele>2</ele>
        <time>2023-11-01T23:28:45Z</time>
      </trkpt>
      <trkpt lat="47.68378" lon="-3.21038">
        <ele>2</ele>
        <time>2023-11-01T23:29:09Z</time>
      </trkpt>
      <trkpt lat="47.68377" lon="-3.21093">
        <ele>2</ele>
        <time>2023-11-01T23:29:59Z</time>
      </trkpt>
      <trkpt lat="47.68361" lon="-3.21173">
        <ele>4</ele>
        <time>2023-11-01T23:31:14Z</time>
      </trkpt>
      <trkpt lat="47.68376" lon="-3.21189">
        <ele>5</ele>
        <time>2023-11-01T23:31:38Z</time>
      </trkpt>
      <trkpt lat="47.6841" lon="-3.21205">
        <ele>4</ele>
        <time>2023-11-01T23:32:26Z</time>
      </trkpt>
    </trkseg>
  </trk>
</gpx>